www.pudn.com > gps.zip > 跑车数据.gga, change:2015-10-22,size:84052b


$GPGGA,083434.00,3958.3094884,N,11613.0071952,E,1,06,1.34,52.5557,M,-6.9536,M,,*72 
$GPGGA,083435.00,3958.3096796,N,11613.0180351,E,1,06,1.34,52.3356,M,-6.9528,M,,*75 
$GPGGA,083436.00,3958.3087207,N,11613.0296702,E,1,05,1.84,55.3174,M,-6.9519,M,,*72 
$GPGGA,083437.00,3958.3088607,N,11613.0408037,E,1,06,1.49,55.3247,M,-6.9511,M,,*71 
$GPGGA,083438.00,3958.3090803,N,11613.0520107,E,1,07,1.17,55.1796,M,-6.9503,M,,*76 
$GPGGA,083439.00,3958.3095345,N,11613.0630717,E,1,08,1.11,54.2574,M,-6.9495,M,,*75 
$GPGGA,083440.00,3958.3097848,N,11613.0743275,E,1,08,1.11,53.6997,M,-6.9487,M,,*7A 
$GPGGA,083441.00,3958.3099434,N,11613.0858066,E,1,08,1.11,53.3197,M,-6.9478,M,,*7A 
$GPGGA,083442.00,3958.3096536,N,11613.0977443,E,1,07,1.18,54.1480,M,-6.9470,M,,*72 
$GPGGA,083443.00,3958.3101432,N,11613.1094153,E,1,07,1.28,52.8063,M,-6.9461,M,,*7D 
$GPGGA,083444.00,3958.3102094,N,11613.1214194,E,1,07,1.28,52.6403,M,-6.9452,M,,*7C 
$GPGGA,083445.00,3958.3102375,N,11613.1335511,E,1,07,1.28,52.5792,M,-6.9444,M,,*75 
$GPGGA,083446.00,3958.3103047,N,11613.1456980,E,1,07,1.28,52.4615,M,-6.9435,M,,*7A 
$GPGGA,083447.00,3958.3103467,N,11613.1578927,E,1,07,1.28,52.3662,M,-6.9426,M,,*78 
$GPGGA,083449.00,3958.3104065,N,11613.1824409,E,1,07,1.28,52.0696,M,-6.9408,M,,*76 
$GPGGA,083450.00,3958.3105024,N,11613.1948130,E,1,06,1.34,51.7475,M,-6.9399,M,,*76 
$GPGGA,083451.00,3958.3105729,N,11613.2072532,E,1,06,1.34,51.5324,M,-6.9390,M,,*70 
$GPGGA,083452.00,3958.3091518,N,11613.2205428,E,1,05,1.84,55.2876,M,-6.9380,M,,*71 
$GPGGA,083453.00,3958.3091271,N,11613.2330122,E,1,05,1.84,55.2341,M,-6.9371,M,,*71 
$GPGGA,083454.00,3958.3091241,N,11613.2453387,E,1,05,1.84,55.1939,M,-6.9362,M,,*7E 
$GPGGA,083455.00,3958.3091447,N,11613.2575934,E,1,05,1.84,55.1136,M,-6.9353,M,,*7D 
$GPGGA,083456.00,3958.3091921,N,11613.2698465,E,1,05,1.84,55.0721,M,-6.9344,M,,*7D 
$GPGGA,083457.00,3958.3092653,N,11613.2821098,E,1,05,1.84,55.0524,M,-6.9335,M,,*7E 
$GPGGA,083458.00,3958.3093491,N,11613.2943967,E,1,05,1.84,54.9707,M,-6.9326,M,,*79 
$GPGGA,083459.00,3958.3094063,N,11613.3066970,E,1,05,1.84,54.9102,M,-6.9317,M,,*7E 
$GPGGA,083500.00,3958.3093933,N,11613.3190247,E,1,05,1.84,54.8460,M,-6.9308,M,,*71 
$GPGGA,083501.00,3958.3093151,N,11613.3314053,E,1,05,1.84,54.7869,M,-6.9299,M,,*76 
$GPGGA,083502.00,3958.3092500,N,11613.3438224,E,1,05,1.84,54.7050,M,-6.9290,M,,*74 
$GPGGA,083503.00,3958.3092271,N,11613.3562418,E,1,05,1.84,54.6373,M,-6.9281,M,,*70 
$GPGGA,083504.00,3958.3092362,N,11613.3685922,E,1,05,1.84,54.6028,M,-6.9272,M,,*7B 
$GPGGA,083505.00,3958.3092745,N,11613.3808834,E,1,05,1.84,54.5491,M,-6.9263,M,,*73 
$GPGGA,083506.00,3958.3093092,N,11613.3931636,E,1,05,1.84,54.5428,M,-6.9254,M,,*7D 
$GPGGA,083507.00,3958.3093599,N,11613.4054191,E,1,05,1.84,54.5128,M,-6.9245,M,,*70 
$GPGGA,083508.00,3958.3094050,N,11613.4176433,E,1,05,1.85,54.5433,M,-6.9237,M,,*7F 
$GPGGA,083509.00,3958.3094246,N,11613.4297972,E,1,05,1.85,54.5397,M,-6.9228,M,,*78 
$GPGGA,083510.00,3958.3094119,N,11613.4418793,E,1,05,1.85,54.5631,M,-6.9219,M,,*72 
$GPGGA,083511.00,3958.3093773,N,11613.4539286,E,1,05,1.85,54.5991,M,-6.9210,M,,*71 
$GPGGA,083512.00,3958.3093115,N,11613.4657982,E,1,05,1.85,54.6541,M,-6.9201,M,,*72 
$GPGGA,083513.00,3958.3092757,N,11613.4774393,E,1,05,1.85,54.7173,M,-6.9193,M,,*74 
$GPGGA,083514.00,3958.3093020,N,11613.4888326,E,1,05,1.85,54.7752,M,-6.9185,M,,*75 
$GPGGA,083515.00,3958.3096838,N,11613.4997630,E,1,07,1.27,53.9580,M,-6.9177,M,,*7E 
$GPGGA,083516.00,3958.3101710,N,11613.5103477,E,1,07,1.27,52.8652,M,-6.9169,M,,*71 
$GPGGA,083517.00,3958.3104954,N,11613.5207980,E,1,07,1.27,52.1711,M,-6.9161,M,,*7E 
$GPGGA,083518.00,3958.3101307,N,11613.5315659,E,1,06,1.34,53.3943,M,-6.9154,M,,*7E 
$GPGGA,083519.00,3958.3095866,N,11613.5424622,E,1,05,1.85,54.9883,M,-6.9146,M,,*7C 
$GPGGA,083520.00,3958.3096621,N,11613.5531739,E,1,05,1.85,55.0022,M,-6.9138,M,,*74 
$GPGGA,083521.00,3958.3097174,N,11613.5641014,E,1,05,1.85,54.9999,M,-6.9130,M,,*76 
$GPGGA,083522.00,3958.3097436,N,11613.5752796,E,1,05,1.85,54.9901,M,-6.9122,M,,*7A 
$GPGGA,083523.00,3958.3097216,N,11613.5866313,E,1,05,1.85,54.9739,M,-6.9113,M,,*79 
$GPGGA,083524.00,3958.3096857,N,11613.5980457,E,1,05,1.85,54.9300,M,-6.9105,M,,*77 
$GPGGA,083525.00,3958.3096309,N,11613.6096224,E,1,05,1.85,54.9059,M,-6.9097,M,,*7C 
$GPGGA,083526.00,3958.3096072,N,11613.6213392,E,1,05,1.85,54.8541,M,-6.9088,M,,*70 
$GPGGA,083527.00,3958.3095983,N,11613.6331781,E,1,05,1.85,54.8240,M,-6.9080,M,,*7C 
$GPGGA,083528.00,3958.3096303,N,11613.6450450,E,1,05,1.85,54.7786,M,-6.9071,M,,*73 
$GPGGA,083529.00,3958.3096596,N,11613.6569794,E,1,05,1.85,54.7355,M,-6.9062,M,,*70 
$GPGGA,083530.00,3958.3096887,N,11613.6690519,E,1,05,1.85,54.6945,M,-6.9053,M,,*7F 
$GPGGA,083531.00,3958.3097199,N,11613.6812569,E,1,05,1.85,54.6521,M,-6.9045,M,,*73 
$GPGGA,083532.00,3958.3097678,N,11613.6935587,E,1,05,1.85,54.5713,M,-6.9036,M,,*78 
$GPGGA,083533.00,3958.3098254,N,11613.7059334,E,1,05,1.85,54.5152,M,-6.9027,M,,*73 
$GPGGA,083534.00,3958.3098804,N,11613.7182051,E,1,05,1.85,54.4868,M,-6.9018,M,,*71 
$GPGGA,083535.00,3958.3099421,N,11613.7303235,E,1,05,1.85,54.4296,M,-6.9009,M,,*7A 
$GPGGA,083536.00,3958.3100312,N,11613.7423072,E,1,05,1.85,54.3528,M,-6.9000,M,,*77 
$GPGGA,083537.00,3958.3101002,N,11613.7541263,E,1,05,1.85,54.2854,M,-6.8991,M,,*75 
$GPGGA,083538.00,3958.3101618,N,11613.7657031,E,1,05,1.85,54.2581,M,-6.8983,M,,*70 
$GPGGA,083539.00,3958.3102131,N,11613.7770287,E,1,05,1.85,54.1845,M,-6.8975,M,,*7A 
$GPGGA,083540.00,3958.3102511,N,11613.7881057,E,1,05,1.85,54.1391,M,-6.8967,M,,*7D 
$GPGGA,083541.00,3958.3102851,N,11613.7989333,E,1,05,1.85,54.1271,M,-6.8959,M,,*7F 
$GPGGA,083542.00,3958.3103639,N,11613.8095350,E,1,05,1.85,54.1074,M,-6.8951,M,,*7C 
$GPGGA,083543.00,3958.3105278,N,11613.8200819,E,1,05,1.85,54.1280,M,-6.8943,M,,*78 
$GPGGA,083544.00,3958.3107907,N,11613.8307738,E,1,05,1.85,54.2449,M,-6.8936,M,,*76 
$GPGGA,083545.00,3958.3111670,N,11613.8415189,E,1,05,1.85,54.3147,M,-6.8928,M,,*72 
$GPGGA,083546.00,3958.3114956,N,11613.8522423,E,1,05,1.85,54.4077,M,-6.8920,M,,*72 
$GPGGA,083547.00,3958.3116906,N,11613.8628456,E,1,05,1.85,54.5496,M,-6.8912,M,,*74 
$GPGGA,083548.00,3958.3117428,N,11613.8732578,E,1,05,1.85,54.7256,M,-6.8905,M,,*72 
$GPGGA,083549.00,3958.3116254,N,11613.8833172,E,1,05,1.85,54.8983,M,-6.8897,M,,*79 
$GPGGA,083550.00,3958.3115243,N,11613.8930489,E,1,05,1.85,55.0451,M,-6.8890,M,,*7B 
$GPGGA,083551.00,3958.3114730,N,11613.9024665,E,1,05,1.85,55.1936,M,-6.8883,M,,*78 
$GPGGA,083552.00,3958.3114731,N,11613.9116484,E,1,05,1.85,55.3648,M,-6.8877,M,,*78 
$GPGGA,083553.00,3958.3115189,N,11613.9207710,E,1,05,1.85,55.5171,M,-6.8870,M,,*7C 
$GPGGA,083554.00,3958.3115625,N,11613.9299071,E,1,05,1.85,55.6761,M,-6.8864,M,,*7C 
$GPGGA,083555.00,3958.3116340,N,11613.9390340,E,1,05,1.85,55.6990,M,-6.8857,M,,*71 
$GPGGA,083556.00,3958.3116800,N,11613.9482477,E,1,05,1.85,55.7838,M,-6.8850,M,,*7F 
$GPGGA,083557.00,3958.3117473,N,11613.9572871,E,1,05,1.85,55.8629,M,-6.8844,M,,*77 
$GPGGA,083558.00,3958.3118042,N,11613.9655603,E,1,05,1.85,55.9087,M,-6.8838,M,,*74 
$GPGGA,083559.00,3958.3118141,N,11613.9727318,E,1,05,1.85,55.9577,M,-6.8832,M,,*7C 
$GPGGA,083600.00,3958.3117837,N,11613.9788656,E,1,06,1.49,56.0982,M,-6.8828,M,,*7A 
$GPGGA,083601.00,3958.3118017,N,11613.9839686,E,1,06,1.49,56.0846,M,-6.8824,M,,*73 
$GPGGA,083602.00,3958.3119239,N,11613.9879978,E,1,06,1.49,56.0897,M,-6.8821,M,,*7C 
$GPGGA,083603.00,3958.3125994,N,11613.9905165,E,1,09,1.05,54.7284,M,-6.8819,M,,*71 
$GPGGA,083604.00,3958.3130175,N,11613.9922118,E,1,09,1.05,53.9766,M,-6.8818,M,,*7B 
$GPGGA,083605.00,3958.3132536,N,11613.9934704,E,1,09,1.05,53.6469,M,-6.8817,M,,*7B 
$GPGGA,083606.00,3958.3135324,N,11613.9947336,E,1,09,1.05,53.4039,M,-6.8816,M,,*79 
$GPGGA,083607.00,3958.3138702,N,11613.9958187,E,1,09,1.05,53.1604,M,-6.8816,M,,*7E 
$GPGGA,083608.00,3958.3140524,N,11613.9963086,E,1,09,1.05,53.0540,M,-6.8815,M,,*71 
$GPGGA,083609.00,3958.3141444,N,11613.9965024,E,1,09,1.05,52.9677,M,-6.8815,M,,*77 
$GPGGA,083610.00,3958.3141993,N,11613.9965928,E,1,09,1.05,52.9031,M,-6.8815,M,,*79 
$GPGGA,083611.00,3958.3142160,N,11613.9965864,E,1,09,1.05,52.8509,M,-6.8815,M,,*79 
$GPGGA,083612.00,3958.3142278,N,11613.9965634,E,1,09,1.05,52.8298,M,-6.8815,M,,*74 
$GPGGA,083613.00,3958.3142376,N,11613.9965441,E,1,09,1.05,52.8032,M,-6.8815,M,,*78 
$GPGGA,083614.00,3958.3142423,N,11613.9965290,E,1,09,1.05,52.8002,M,-6.8815,M,,*71 
$GPGGA,083615.00,3958.3142528,N,11613.9965185,E,1,09,1.05,52.8025,M,-6.8815,M,,*78 
$GPGGA,083616.00,3958.3142564,N,11613.9965066,E,1,09,1.05,52.7905,M,-6.8815,M,,*7B 
$GPGGA,083617.00,3958.3142790,N,11613.9965530,E,1,09,1.05,52.7841,M,-6.8815,M,,*74 
$GPGGA,083618.00,3958.3145069,N,11613.9971957,E,1,09,1.05,52.7683,M,-6.8815,M,,*75 
$GPGGA,083619.00,3958.3151589,N,11613.9985389,E,1,09,1.05,52.7680,M,-6.8814,M,,*7A 
$GPGGA,083620.00,3958.3162122,N,11614.0000525,E,1,09,1.05,52.7275,M,-6.8812,M,,*77 
$GPGGA,083621.00,3958.3175929,N,11614.0014072,E,1,09,1.05,52.6547,M,-6.8811,M,,*75 
$GPGGA,083622.00,3958.3196404,N,11614.0026576,E,1,09,1.05,52.6213,M,-6.8811,M,,*7F 
$GPGGA,083623.00,3958.3224509,N,11614.0035423,E,1,09,1.05,52.6497,M,-6.8810,M,,*70 
$GPGGA,083624.00,3958.3258802,N,11614.0037455,E,1,09,1.05,52.7101,M,-6.8810,M,,*72 
$GPGGA,083625.00,3958.3298392,N,11614.0035144,E,1,09,1.05,52.7569,M,-6.8810,M,,*70 
$GPGGA,083626.00,3958.3342954,N,11614.0031048,E,1,09,1.05,52.8288,M,-6.8810,M,,*7B 
$GPGGA,083627.00,3958.3391488,N,11614.0025007,E,1,09,1.05,52.8108,M,-6.8811,M,,*7C 
$GPGGA,083628.00,3958.3443730,N,11614.0017777,E,1,09,1.05,52.7927,M,-6.8811,M,,*70 
$GPGGA,083629.00,3958.3496380,N,11614.0010374,E,1,09,1.05,52.7283,M,-6.8812,M,,*70 
$GPGGA,083630.00,3958.3552464,N,11614.0001925,E,1,09,1.05,52.6886,M,-6.8812,M,,*7C 
$GPGGA,083631.00,3958.3613248,N,11613.9992563,E,1,09,1.05,52.6221,M,-6.8813,M,,*76 
$GPGGA,083632.00,3958.3678598,N,11613.9982273,E,1,09,1.05,52.5358,M,-6.8814,M,,*7E 
$GPGGA,083633.00,3958.3748555,N,11613.9971587,E,1,09,1.05,52.4371,M,-6.8815,M,,*77 
$GPGGA,083634.00,3958.3822465,N,11613.9960678,E,1,09,1.05,52.3090,M,-6.8815,M,,*79 
$GPGGA,083635.00,3958.3899608,N,11613.9949383,E,1,09,1.05,52.1989,M,-6.8816,M,,*7B 
$GPGGA,083636.00,3958.3979978,N,11613.9937419,E,1,09,1.05,52.1156,M,-6.8817,M,,*79 
$GPGGA,083637.00,3958.4062214,N,11613.9924707,E,1,09,1.05,52.0991,M,-6.8818,M,,*7E 
$GPGGA,083638.00,3958.4143680,N,11613.9910713,E,1,09,1.05,52.1417,M,-6.8819,M,,*7B 
$GPGGA,083639.00,3958.4225518,N,11613.9892997,E,1,09,1.05,52.2318,M,-6.8820,M,,*73 
$GPGGA,083640.00,3958.4307768,N,11613.9870339,E,1,09,1.05,52.2901,M,-6.8822,M,,*7B 
$GPGGA,083641.00,3958.4389952,N,11613.9842427,E,1,09,1.05,52.3792,M,-6.8824,M,,*71 
$GPGGA,083642.00,3958.4470976,N,11613.9807697,E,1,09,1.04,52.4335,M,-6.8827,M,,*71 
$GPGGA,083643.00,3958.4551041,N,11613.9766719,E,1,09,1.04,52.5038,M,-6.8830,M,,*79 
$GPGGA,083644.00,3958.4630199,N,11613.9720866,E,1,09,1.04,52.5665,M,-6.8833,M,,*76 
$GPGGA,083645.00,3958.4708430,N,11613.9670480,E,1,09,1.04,52.6239,M,-6.8837,M,,*71 
$GPGGA,083646.00,3958.4786206,N,11613.9615900,E,1,09,1.04,52.7085,M,-6.8841,M,,*74 
$GPGGA,083647.00,3958.4862987,N,11613.9559445,E,1,09,1.04,52.7284,M,-6.8845,M,,*72 
$GPGGA,083648.00,3958.4939337,N,11613.9502400,E,1,09,1.04,52.6844,M,-6.8849,M,,*77 
$GPGGA,083649.00,3958.5015739,N,11613.9444009,E,1,09,1.04,52.6037,M,-6.8853,M,,*73 
$GPGGA,083650.00,3958.5092761,N,11613.9384326,E,1,09,1.04,52.5654,M,-6.8857,M,,*78 
$GPGGA,083651.00,3958.5170534,N,11613.9323204,E,1,09,1.04,52.5202,M,-6.8862,M,,*7B 
$GPGGA,083652.00,3958.5248604,N,11613.9261364,E,1,09,1.04,52.4439,M,-6.8866,M,,*7B 
$GPGGA,083653.00,3958.5327114,N,11613.9199541,E,1,09,1.04,52.4004,M,-6.8871,M,,*7D 
$GPGGA,083654.00,3958.5406036,N,11613.9137574,E,1,09,1.04,52.3576,M,-6.8875,M,,*7E 
$GPGGA,083655.00,3958.5481662,N,11613.9070499,E,1,08,1.19,51.7667,M,-6.8880,M,,*74 
$GPGGA,083656.00,3958.5562090,N,11613.9007961,E,1,08,1.19,51.7931,M,-6.8885,M,,*73 
$GPGGA,083657.00,3958.5643182,N,11613.8944986,E,1,08,1.19,51.8507,M,-6.8889,M,,*7C 
$GPGGA,083658.00,3958.5725252,N,11613.8882650,E,1,09,1.04,51.8907,M,-6.8894,M,,*7E 
$GPGGA,083659.00,3958.5809416,N,11613.8823300,E,1,09,1.04,51.9800,M,-6.8898,M,,*78 
$GPGGA,083700.00,3958.5895832,N,11613.8767845,E,1,09,1.04,52.0629,M,-6.8902,M,,*72 
$GPGGA,083701.00,3958.5984754,N,11613.8717970,E,1,09,1.04,52.1556,M,-6.8906,M,,*73 
$GPGGA,083702.00,3958.6075931,N,11613.8673772,E,1,09,1.04,52.2613,M,-6.8909,M,,*78 
$GPGGA,083703.00,3958.6168130,N,11613.8636251,E,1,09,1.04,52.3372,M,-6.8912,M,,*71 
$GPGGA,083704.00,3958.6260858,N,11613.8605236,E,1,09,1.04,52.3909,M,-6.8914,M,,*7B 
$GPGGA,083705.00,3958.6354273,N,11613.8579579,E,1,09,1.04,52.3391,M,-6.8916,M,,*72 
$GPGGA,083706.00,3958.6445570,N,11613.8552112,E,1,08,1.19,52.0126,M,-6.8918,M,,*7C 
$GPGGA,083707.00,3958.6538640,N,11613.8526042,E,1,08,1.19,51.9850,M,-6.8920,M,,*78 
$GPGGA,083708.00,3958.6630579,N,11613.8500086,E,1,08,1.19,51.9005,M,-6.8922,M,,*73 
$GPGGA,083709.00,3958.6722357,N,11613.8474215,E,1,09,1.04,51.8963,M,-6.8924,M,,*73 
$GPGGA,083710.00,3958.6813028,N,11613.8447485,E,1,09,1.04,51.8786,M,-6.8926,M,,*75 
$GPGGA,083711.00,3958.6900994,N,11613.8419842,E,1,09,1.04,51.8701,M,-6.8928,M,,*74 
$GPGGA,083712.00,3958.6982820,N,11613.8391032,E,1,09,1.04,51.8854,M,-6.8930,M,,*7D 
$GPGGA,083713.00,3958.7056163,N,11613.8362947,E,1,09,1.04,51.9482,M,-6.8932,M,,*70 
$GPGGA,083714.00,3958.7123753,N,11613.8335590,E,1,09,1.04,52.0382,M,-6.8934,M,,*7E 
$GPGGA,083715.00,3958.7185082,N,11613.8310456,E,1,09,1.04,52.1439,M,-6.8936,M,,*70 
$GPGGA,083716.00,3958.7238720,N,11613.8286955,E,1,09,1.04,52.2397,M,-6.8937,M,,*78 
$GPGGA,083717.00,3958.7284680,N,11613.8265170,E,1,09,1.04,52.2974,M,-6.8939,M,,*7E 
$GPGGA,083718.00,3958.7328898,N,11613.8245553,E,1,09,1.04,52.3818,M,-6.8940,M,,*72 
$GPGGA,083719.00,3958.7373726,N,11613.8225580,E,1,09,1.04,52.4463,M,-6.8942,M,,*7A 
$GPGGA,083720.00,3958.7417279,N,11613.8201654,E,1,09,1.04,52.5024,M,-6.8944,M,,*76 
$GPGGA,083721.00,3958.7458239,N,11613.8175266,E,1,09,1.04,52.5581,M,-6.8946,M,,*75 
$GPGGA,083722.00,3958.7495692,N,11613.8149445,E,1,09,1.04,52.6114,M,-6.8948,M,,*7F 
$GPGGA,083723.00,3958.7528124,N,11613.8129755,E,1,09,1.04,52.6975,M,-6.8949,M,,*79 
$GPGGA,083724.00,3958.7556079,N,11613.8118433,E,1,09,1.04,52.7422,M,-6.8950,M,,*79 
$GPGGA,083725.00,3958.7580258,N,11613.8116551,E,1,09,1.04,52.7427,M,-6.8950,M,,*7C 
$GPGGA,083726.00,3958.7602357,N,11613.8123011,E,1,09,1.04,52.7494,M,-6.8949,M,,*7F 
$GPGGA,083727.00,3958.7623713,N,11613.8138456,E,1,09,1.04,52.7632,M,-6.8948,M,,*7B 
$GPGGA,083728.00,3958.7645355,N,11613.8163820,E,1,09,1.04,52.7615,M,-6.8946,M,,*7A 
$GPGGA,083729.00,3958.7665343,N,11613.8196861,E,1,08,1.09,53.0276,M,-6.8944,M,,*78 
$GPGGA,083730.00,3958.7686615,N,11613.8240571,E,1,08,1.09,52.9880,M,-6.8941,M,,*71 
$GPGGA,083731.00,3958.7709569,N,11613.8291345,E,1,08,1.09,52.9405,M,-6.8937,M,,*73 
$GPGGA,083732.00,3958.7735108,N,11613.8347795,E,1,08,1.09,52.8814,M,-6.8933,M,,*76 
$GPGGA,083733.00,3958.7763560,N,11613.8409478,E,1,08,1.09,52.8086,M,-6.8929,M,,*7B 
$GPGGA,083734.00,3958.7794942,N,11613.8476110,E,1,08,1.09,52.7539,M,-6.8924,M,,*78 
$GPGGA,083735.00,3958.7827701,N,11613.8547338,E,1,08,1.09,52.6919,M,-6.8919,M,,*7D 
$GPGGA,083736.00,3958.7860298,N,11613.8618142,E,1,08,1.09,52.5454,M,-6.8913,M,,*73 
$GPGGA,083737.00,3958.7892072,N,11613.8688863,E,1,08,1.09,52.5010,M,-6.8908,M,,*74 
$GPGGA,083738.00,3958.7923944,N,11613.8760051,E,1,08,1.09,52.4598,M,-6.8903,M,,*7D 
$GPGGA,083739.00,3958.7955995,N,11613.8831151,E,1,08,1.09,52.5130,M,-6.8898,M,,*7F 
$GPGGA,083740.00,3958.7989206,N,11613.8902341,E,1,08,1.09,52.4558,M,-6.8893,M,,*73 
$GPGGA,083741.00,3958.8023762,N,11613.8974212,E,1,08,1.09,52.3844,M,-6.8887,M,,*77 
$GPGGA,083742.00,3958.8059595,N,11613.9046480,E,1,08,1.09,52.3271,M,-6.8882,M,,*7E 
$GPGGA,083743.00,3958.8096343,N,11613.9119506,E,1,08,1.09,52.2575,M,-6.8877,M,,*7D 
$GPGGA,083744.00,3958.8133347,N,11613.9193772,E,1,08,1.09,52.2022,M,-6.8872,M,,*71 
$GPGGA,083745.00,3958.8169255,N,11613.9268562,E,1,08,1.09,52.1558,M,-6.8866,M,,*77 
$GPGGA,083746.00,3958.8204530,N,11613.9344386,E,1,08,1.09,52.1133,M,-6.8861,M,,*75 
$GPGGA,083747.00,3958.8239591,N,11613.9420397,E,1,08,1.09,52.0867,M,-6.8855,M,,*7A 
$GPGGA,083748.00,3958.8276757,N,11613.9497420,E,1,07,1.16,51.9121,M,-6.8849,M,,*7C 
$GPGGA,083750.00,3958.8351932,N,11613.9651276,E,1,07,1.16,51.7999,M,-6.8838,M,,*72 
$GPGGA,083751.00,3958.8388176,N,11613.9724035,E,1,08,1.09,51.7606,M,-6.8833,M,,*7A 
$GPGGA,083752.00,3958.8423607,N,11613.9794227,E,1,07,1.16,51.7096,M,-6.8828,M,,*70 
$GPGGA,083753.00,3958.8457482,N,11613.9854930,E,1,07,1.16,51.6978,M,-6.8823,M,,*70 
$GPGGA,083754.00,3958.8488245,N,11613.9905668,E,1,08,1.09,51.6848,M,-6.8820,M,,*7F 
$GPGGA,083755.00,3958.8516750,N,11613.9952982,E,1,08,1.09,51.6871,M,-6.8816,M,,*7F 
$GPGGA,083756.00,3958.8542745,N,11614.0003821,E,1,08,1.09,51.6837,M,-6.8813,M,,*75 
$GPGGA,083757.00,3958.8566049,N,11614.0061150,E,1,08,1.09,51.6690,M,-6.8808,M,,*7B 
$GPGGA,083758.00,3958.8589407,N,11614.0123099,E,1,07,1.15,51.5768,M,-6.8804,M,,*73 
$GPGGA,083759.00,3958.8615182,N,11614.0188181,E,1,07,1.15,51.5175,M,-6.8799,M,,*74 
$GPGGA,083800.00,3958.8644502,N,11614.0255307,E,1,08,1.09,51.4764,M,-6.8794,M,,*78 
$GPGGA,083801.00,3958.8677015,N,11614.0323853,E,1,08,1.09,51.4288,M,-6.8789,M,,*7B 
$GPGGA,083802.00,3958.8711134,N,11614.0395210,E,1,08,1.09,51.3732,M,-6.8784,M,,*75 
$GPGGA,083803.00,3958.8746995,N,11614.0469130,E,1,08,1.09,51.3426,M,-6.8779,M,,*74 
$GPGGA,083804.00,3958.8784078,N,11614.0545993,E,1,08,1.09,51.3195,M,-6.8773,M,,*7E 
$GPGGA,083805.00,3958.8822361,N,11614.0625903,E,1,08,1.09,51.2915,M,-6.8767,M,,*7F 
$GPGGA,083806.00,3958.8861391,N,11614.0709159,E,1,08,1.09,51.2551,M,-6.8761,M,,*76 
$GPGGA,083807.00,3958.8901260,N,11614.0795009,E,1,08,1.09,51.2337,M,-6.8755,M,,*7F 
$GPGGA,083808.00,3958.8941840,N,11614.0881701,E,1,08,1.09,51.2280,M,-6.8749,M,,*79 
$GPGGA,083809.00,3958.8982741,N,11614.0967676,E,1,08,1.09,51.1941,M,-6.8742,M,,*7F 
$GPGGA,083810.00,3958.9023100,N,11614.1052534,E,1,08,1.09,51.1858,M,-6.8736,M,,*76 
$GPGGA,083811.00,3958.9063026,N,11614.1137028,E,1,08,1.09,51.1905,M,-6.8730,M,,*73 
$GPGGA,083812.00,3958.9102785,N,11614.1219772,E,1,08,1.09,51.2066,M,-6.8724,M,,*75 
$GPGGA,083813.00,3958.9142361,N,11614.1300913,E,1,08,1.09,51.2467,M,-6.8718,M,,*74 
$GPGGA,083814.00,3958.9181638,N,11614.1380635,E,1,08,1.09,51.2653,M,-6.8712,M,,*79 
$GPGGA,083815.00,3958.9220666,N,11614.1459293,E,1,08,1.09,51.2957,M,-6.8707,M,,*7F 
$GPGGA,083816.00,3958.9259560,N,11614.1538181,E,1,08,1.09,51.3412,M,-6.8701,M,,*7A 
$GPGGA,083817.00,3958.9298254,N,11614.1617079,E,1,08,1.08,51.3707,M,-6.8695,M,,*74 
$GPGGA,083818.00,3958.9336829,N,11614.1696354,E,1,08,1.08,51.4189,M,-6.8689,M,,*71 
$GPGGA,083819.00,3958.9374711,N,11614.1775741,E,1,08,1.08,51.4430,M,-6.8684,M,,*74 
$GPGGA,083820.00,3958.9411941,N,11614.1854420,E,1,08,1.08,51.4829,M,-6.8678,M,,*7E 
$GPGGA,083821.00,3958.9448223,N,11614.1930781,E,1,08,1.08,51.4976,M,-6.8672,M,,*76 
$GPGGA,083822.00,3958.9483641,N,11614.2004732,E,1,08,1.08,51.5196,M,-6.8667,M,,*74 
$GPGGA,083823.00,3958.9518272,N,11614.2076326,E,1,08,1.08,51.5277,M,-6.8662,M,,*7F 
$GPGGA,083824.00,3958.9552324,N,11614.2145474,E,1,08,1.08,51.5636,M,-6.8657,M,,*72 
$GPGGA,083825.00,3958.9586512,N,11614.2213140,E,1,08,1.08,51.5646,M,-6.8652,M,,*79 
$GPGGA,083826.00,3958.9620751,N,11614.2280476,E,1,08,1.08,51.6760,M,-6.8647,M,,*78 
$GPGGA,083827.00,3958.9655060,N,11614.2348419,E,1,08,1.08,51.6831,M,-6.8642,M,,*7C 
$GPGGA,083828.00,3958.9689388,N,11614.2417752,E,1,08,1.08,51.6499,M,-6.8637,M,,*7A 
$GPGGA,083829.00,3958.9722963,N,11614.2488839,E,1,08,1.08,51.6092,M,-6.8632,M,,*7A 
$GPGGA,083830.00,3958.9756078,N,11614.2561716,E,1,08,1.08,51.5308,M,-6.8626,M,,*70 
$GPGGA,083831.00,3958.9789950,N,11614.2636175,E,1,08,1.08,51.4230,M,-6.8621,M,,*7E 
$GPGGA,083832.00,3958.9825332,N,11614.2711844,E,1,08,1.08,51.3116,M,-6.8616,M,,*71 
$GPGGA,083833.00,3958.9861848,N,11614.2788901,E,1,08,1.08,51.2406,M,-6.8610,M,,*75 
$GPGGA,083834.00,3958.9899592,N,11614.2867239,E,1,08,1.08,51.1409,M,-6.8604,M,,*78 
$GPGGA,083835.00,3958.9939001,N,11614.2946445,E,1,08,1.08,50.9745,M,-6.8599,M,,*77 
$GPGGA,083836.00,3958.9979678,N,11614.3027295,E,1,08,1.08,50.9274,M,-6.8593,M,,*71 
$GPGGA,083837.00,3959.0021908,N,11614.3109635,E,1,08,1.08,50.8475,M,-6.8587,M,,*74 
$GPGGA,083838.00,3959.0065205,N,11614.3193231,E,1,08,1.08,50.7404,M,-6.8581,M,,*71 
$GPGGA,083839.00,3959.0109569,N,11614.3278328,E,1,08,1.08,50.6329,M,-6.8574,M,,*7A 
$GPGGA,083840.00,3959.0155436,N,11614.3365531,E,1,08,1.08,50.5234,M,-6.8568,M,,*76 
$GPGGA,083841.00,3959.0202498,N,11614.3454957,E,1,09,1.03,50.4066,M,-6.8562,M,,*7F 
$GPGGA,083842.00,3959.0250558,N,11614.3544944,E,1,09,1.03,50.2893,M,-6.8555,M,,*74 
$GPGGA,083843.00,3959.0299485,N,11614.3635453,E,1,09,1.03,50.1481,M,-6.8548,M,,*7F 
$GPGGA,083844.00,3959.0348058,N,11614.3726989,E,1,09,1.03,50.0490,M,-6.8542,M,,*73 
$GPGGA,083845.00,3959.0396506,N,11614.3819886,E,1,09,1.03,49.9266,M,-6.8535,M,,*7C 
$GPGGA,083846.00,3959.0444752,N,11614.3914242,E,1,09,1.03,49.7970,M,-6.8528,M,,*74 
$GPGGA,083847.00,3959.0492624,N,11614.4009772,E,1,09,1.03,49.7397,M,-6.8521,M,,*70 
$GPGGA,083848.00,3959.0539763,N,11614.4106830,E,1,09,1.03,49.7015,M,-6.8514,M,,*75 
$GPGGA,083849.00,3959.0586609,N,11614.4205291,E,1,09,1.03,49.6435,M,-6.8507,M,,*79 
$GPGGA,083850.00,3959.0632647,N,11614.4304316,E,1,09,1.03,49.6022,M,-6.8500,M,,*7C 
$GPGGA,083851.00,3959.0676497,N,11614.4401991,E,1,09,1.03,49.5803,M,-6.8493,M,,*76 
$GPGGA,083852.00,3959.0717551,N,11614.4498978,E,1,09,1.03,49.5741,M,-6.8486,M,,*72 
$GPGGA,083853.00,3959.0756342,N,11614.4594755,E,1,09,1.03,49.5380,M,-6.8479,M,,*77 
$GPGGA,083854.00,3959.0794535,N,11614.4688966,E,1,09,1.03,49.4952,M,-6.8472,M,,*77 
$GPGGA,083855.00,3959.0832534,N,11614.4781971,E,1,09,1.03,49.4828,M,-6.8465,M,,*70 
$GPGGA,083856.00,3959.0870399,N,11614.4874475,E,1,09,1.03,49.4473,M,-6.8458,M,,*74 
$GPGGA,083857.00,3959.0908442,N,11614.4966379,E,1,09,1.03,49.4378,M,-6.8452,M,,*75 
$GPGGA,083858.00,3959.0946101,N,11614.5058112,E,1,09,1.03,49.4132,M,-6.8445,M,,*72 
$GPGGA,083859.00,3959.0983497,N,11614.5149568,E,1,09,1.03,49.4098,M,-6.8438,M,,*73 
$GPGGA,083900.00,3959.1020660,N,11614.5240692,E,1,09,1.03,49.3911,M,-6.8432,M,,*7C 
$GPGGA,083901.00,3959.1057205,N,11614.5330605,E,1,09,1.03,49.3743,M,-6.8425,M,,*7D 
$GPGGA,083902.00,3959.1093647,N,11614.5420569,E,1,09,1.03,49.3395,M,-6.8419,M,,*7B 
$GPGGA,083903.00,3959.1129656,N,11614.5512216,E,1,09,1.03,49.3026,M,-6.8412,M,,*75 
$GPGGA,083904.00,3959.1165772,N,11614.5605598,E,1,09,1.03,49.2812,M,-6.8405,M,,*71 
$GPGGA,083905.00,3959.1203030,N,11614.5700238,E,1,09,1.03,49.2848,M,-6.8398,M,,*77 
$GPGGA,083906.00,3959.1241366,N,11614.5795986,E,1,09,1.03,49.2397,M,-6.8391,M,,*70 
$GPGGA,083907.00,3959.1280003,N,11614.5891445,E,1,09,1.03,49.2755,M,-6.8384,M,,*7B 
$GPGGA,083908.00,3959.1318740,N,11614.5987121,E,1,09,1.03,49.2877,M,-6.8377,M,,*76 
$GPGGA,083909.00,3959.1357230,N,11614.6081683,E,1,09,1.03,49.3126,M,-6.8371,M,,*77 
$GPGGA,083910.00,3959.1395722,N,11614.6175590,E,1,09,1.03,49.3152,M,-6.8364,M,,*7B 
$GPGGA,083911.00,3959.1434872,N,11614.6270201,E,1,09,1.03,49.3392,M,-6.8357,M,,*7B 
$GPGGA,083912.00,3959.1474562,N,11614.6365569,E,1,09,1.03,49.3394,M,-6.8350,M,,*7D 
$GPGGA,083913.00,3959.1514137,N,11614.6461560,E,1,09,1.03,49.3683,M,-6.8343,M,,*74 
$GPGGA,083914.00,3959.1553300,N,11614.6557506,E,1,09,1.03,49.3804,M,-6.8336,M,,*71 
$GPGGA,083915.00,3959.1591927,N,11614.6652983,E,1,09,1.03,49.4111,M,-6.8329,M,,*72 
$GPGGA,083916.00,3959.1629466,N,11614.6745856,E,1,09,1.03,49.4546,M,-6.8322,M,,*7A 
$GPGGA,083917.00,3959.1662273,N,11614.6828919,E,1,08,1.08,49.6799,M,-6.8316,M,,*77 
$GPGGA,083918.00,3959.1691975,N,11614.6901580,E,1,08,1.08,49.6916,M,-6.8311,M,,*71 
$GPGGA,083919.00,3959.1717490,N,11614.6962689,E,1,08,1.08,49.6989,M,-6.8307,M,,*77 
$GPGGA,083920.00,3959.1738452,N,11614.7012594,E,1,08,1.08,49.6911,M,-6.8303,M,,*7B 
$GPGGA,083921.00,3959.1754696,N,11614.7051090,E,1,08,1.08,49.7043,M,-6.8300,M,,*70 
$GPGGA,083922.00,3959.1765685,N,11614.7078444,E,1,08,1.08,49.6880,M,-6.8298,M,,*73 
$GPGGA,083923.00,3959.1772886,N,11614.7096617,E,1,09,1.03,49.6710,M,-6.8297,M,,*7E 
$GPGGA,083924.00,3959.1776902,N,11614.7106725,E,1,09,1.03,49.6711,M,-6.8296,M,,*78 
$GPGGA,083925.00,3959.1778321,N,11614.7110418,E,1,09,1.03,49.6318,M,-6.8296,M,,*7B 
$GPGGA,083926.00,3959.1779260,N,11614.7112873,E,1,09,1.03,49.5953,M,-6.8296,M,,*78 
$GPGGA,083927.00,3959.1779858,N,11614.7114432,E,1,09,1.03,49.5849,M,-6.8295,M,,*7E 
$GPGGA,083928.00,3959.1780153,N,11614.7115163,E,1,09,1.03,49.5639,M,-6.8295,M,,*7C 
$GPGGA,083929.00,3959.1780210,N,11614.7115275,E,1,09,1.03,49.5534,M,-6.8295,M,,*73 
$GPGGA,083930.00,3959.1780243,N,11614.7115320,E,1,09,1.03,49.5460,M,-6.8295,M,,*7C 
$GPGGA,083931.00,3959.1780250,N,11614.7115311,E,1,09,1.03,49.5361,M,-6.8295,M,,*7B 
$GPGGA,083932.00,3959.1780246,N,11614.7115320,E,1,09,1.03,49.5219,M,-6.8295,M,,*73 
$GPGGA,083933.00,3959.1780260,N,11614.7115339,E,1,09,1.03,49.5066,M,-6.8295,M,,*74 
$GPGGA,083934.00,3959.1780246,N,11614.7115355,E,1,09,1.03,49.4923,M,-6.8295,M,,*74 
$GPGGA,083935.00,3959.1780210,N,11614.7115345,E,1,09,1.03,49.4717,M,-6.8295,M,,*7E 
$GPGGA,083936.00,3959.1780167,N,11614.7115340,E,1,09,1.03,49.4367,M,-6.8295,M,,*78 
$GPGGA,083937.00,3959.1780151,N,11614.7115339,E,1,09,1.03,49.4141,M,-6.8295,M,,*74 
$GPGGA,083938.00,3959.1780146,N,11614.7115318,E,1,09,1.03,49.3848,M,-6.8295,M,,*79 
$GPGGA,083939.00,3959.1780162,N,11614.7115305,E,1,09,1.03,49.3612,M,-6.8295,M,,*73 
$GPGGA,083940.00,3959.1780199,N,11614.7115294,E,1,09,1.03,49.3437,M,-6.8295,M,,*75 
$GPGGA,083941.00,3959.1780217,N,11614.7115326,E,1,09,1.03,49.3238,M,-6.8295,M,,*70 
$GPGGA,083942.00,3959.1780266,N,11614.7115427,E,1,09,1.03,49.3099,M,-6.8295,M,,*7A 
$GPGGA,083943.00,3959.1781026,N,11614.7117371,E,1,09,1.03,49.2997,M,-6.8295,M,,*7C 
$GPGGA,083944.00,3959.1783357,N,11614.7123625,E,1,09,1.03,49.3126,M,-6.8295,M,,*7C 
$GPGGA,083945.00,3959.1787162,N,11614.7138483,E,1,09,1.03,49.3101,M,-6.8294,M,,*7D 
$GPGGA,083946.00,3959.1787815,N,11614.7158061,E,1,09,1.03,49.4114,M,-6.8292,M,,*7C 
$GPGGA,083947.00,3959.1786495,N,11614.7182808,E,1,07,1.25,49.1693,M,-6.8291,M,,*7C 
$GPGGA,083948.00,3959.1776017,N,11614.7208767,E,1,07,1.25,49.2174,M,-6.8289,M,,*71 
$GPGGA,083949.00,3959.1756648,N,11614.7233378,E,1,07,1.25,49.7544,M,-6.8287,M,,*70 
$GPGGA,083950.00,3959.1736725,N,11614.7246655,E,1,08,1.67,54.3119,M,-6.8286,M,,*70 
$GPGGA,083951.00,3959.1700624,N,11614.7268434,E,1,08,1.67,53.9252,M,-6.8284,M,,*7E 
$GPGGA,083952.00,3959.1660841,N,11614.7288769,E,1,08,1.67,53.6581,M,-6.8283,M,,*73 
$GPGGA,083953.00,3959.1619945,N,11614.7308985,E,1,08,1.67,53.3755,M,-6.8281,M,,*70 
$GPGGA,083954.00,3959.1575441,N,11614.7330094,E,1,08,1.67,53.2333,M,-6.8280,M,,*71 
$GPGGA,083955.00,3959.1529475,N,11614.7348851,E,1,06,2.69,54.8169,M,-6.8278,M,,*74 
$GPGGA,083956.00,3959.1477049,N,11614.7372747,E,1,06,2.69,54.8634,M,-6.8277,M,,*77 
$GPGGA,083957.00,3959.1420641,N,11614.7398217,E,1,07,1.70,54.8772,M,-6.8275,M,,*75 
$GPGGA,083958.00,3959.1327250,N,11614.7531568,E,1,05,13.60,24.8106,M,-6.8265,M,,*47 
$GPGGA,083959.00,3959.1263501,N,11614.7560040,E,1,05,13.60,24.8544,M,-6.8263,M,,*4B 
$GPGGA,084000.00,3959.1196411,N,11614.7591196,E,1,05,13.61,24.7611,M,-6.8261,M,,*4B 
$GPGGA,084001.00,3959.1127200,N,11614.7623445,E,1,05,13.62,24.7437,M,-6.8258,M,,*48 
$GPGGA,084002.00,3959.1056279,N,11614.7657171,E,1,05,13.63,24.6949,M,-6.8256,M,,*49 
$GPGGA,084003.00,3959.0983696,N,11614.7690739,E,1,05,13.64,24.9973,M,-6.8254,M,,*4F 
$GPGGA,084004.00,3959.0908675,N,11614.7726941,E,1,05,13.65,24.7537,M,-6.8251,M,,*4D 
$GPGGA,084005.00,3959.0832681,N,11614.7762619,E,1,05,13.66,25.1723,M,-6.8248,M,,*46 
$GPGGA,084006.00,3959.0755081,N,11614.7800662,E,1,05,13.66,25.2589,M,-6.8246,M,,*45 
$GPGGA,084007.00,3959.0678640,N,11614.7839387,E,1,05,13.67,25.4451,M,-6.8243,M,,*43 
$GPGGA,084008.00,3959.0603916,N,11614.7878546,E,1,05,13.68,25.7853,M,-6.8240,M,,*43 
$GPGGA,084009.00,3959.0528777,N,11614.7920652,E,1,05,13.69,25.7236,M,-6.8237,M,,*43 
$GPGGA,084010.00,3959.0454682,N,11614.7963126,E,1,05,13.70,25.6704,M,-6.8234,M,,*47 
$GPGGA,084011.00,3959.0382470,N,11614.8005166,E,1,05,13.70,25.8628,M,-6.8231,M,,*43 
$GPGGA,084012.00,3959.0311030,N,11614.8049893,E,1,05,13.71,25.8568,M,-6.8227,M,,*40 
$GPGGA,084013.00,3959.0239983,N,11614.8096954,E,1,05,13.72,25.7815,M,-6.8224,M,,*4B 
$GPGGA,084014.00,3959.0168684,N,11614.8146699,E,1,05,13.73,25.5115,M,-6.8220,M,,*4F 
$GPGGA,084015.00,3959.0097746,N,11614.8197648,E,1,05,13.74,25.3703,M,-6.8217,M,,*44 
$GPGGA,084016.00,3959.0028276,N,11614.8248290,E,1,05,13.74,25.5169,M,-6.8213,M,,*4D 
$GPGGA,084017.00,3958.9959921,N,11614.8299573,E,1,05,13.75,25.6749,M,-6.8209,M,,*49 
$GPGGA,084018.00,3958.9918976,N,11614.8267484,E,1,06,1.82,49.7930,M,-6.8212,M,,*70 
$GPGGA,084019.00,3958.9825012,N,11614.8405253,E,1,05,13.77,25.6675,M,-6.8202,M,,*45 
$GPGGA,084020.00,3958.9759222,N,11614.8458610,E,1,05,13.77,25.6933,M,-6.8198,M,,*4C 
$GPGGA,084021.00,3958.9694437,N,11614.8512293,E,1,05,13.78,25.2629,M,-6.8194,M,,*4C 
$GPGGA,084022.00,3958.9631840,N,11614.8563277,E,1,05,13.79,25.3690,M,-6.8190,M,,*46 
$GPGGA,084023.00,3958.9570583,N,11614.8614377,E,1,05,13.80,25.4023,M,-6.8186,M,,*49 
$GPGGA,084024.00,3958.9508407,N,11614.8668560,E,1,05,13.80,24.9062,M,-6.8182,M,,*4A 
$GPGGA,084025.00,3958.9444740,N,11614.8722777,E,1,05,13.81,24.9677,M,-6.8178,M,,*4F 
$GPGGA,084026.00,3958.9377915,N,11614.8777750,E,1,05,13.82,24.7872,M,-6.8174,M,,*4A 
$GPGGA,084027.00,3958.9307652,N,11614.8832528,E,1,05,13.82,24.5795,M,-6.8171,M,,*42 
$GPGGA,084028.00,3958.9235493,N,11614.8888689,E,1,05,13.83,24.6721,M,-6.8166,M,,*40 
$GPGGA,084029.00,3958.9162781,N,11614.8948468,E,1,05,13.84,24.5900,M,-6.8162,M,,*4D 
$GPGGA,084030.00,3958.9090954,N,11614.9010742,E,1,05,13.84,24.6305,M,-6.8158,M,,*44 
$GPGGA,084031.00,3958.9020208,N,11614.9076183,E,1,05,13.85,24.6260,M,-6.8153,M,,*4F 
$GPGGA,084032.00,3958.8950921,N,11614.9140994,E,1,05,13.86,24.7713,M,-6.8148,M,,*40 
$GPGGA,084033.00,3958.8882476,N,11614.9203955,E,1,05,13.86,24.7402,M,-6.8143,M,,*41 
$GPGGA,084034.00,3958.8815142,N,11614.9263956,E,1,05,13.87,24.9809,M,-6.8139,M,,*4A 
$GPGGA,084035.00,3958.8748974,N,11614.9321771,E,1,05,13.88,25.0952,M,-6.8135,M,,*49 
$GPGGA,084036.00,3958.8683750,N,11614.9378229,E,1,05,13.88,25.1675,M,-6.8131,M,,*4F 
$GPGGA,084037.00,3958.8618412,N,11614.9435190,E,1,05,13.89,25.1846,M,-6.8127,M,,*4E 
$GPGGA,084038.00,3958.8551660,N,11614.9491653,E,1,05,13.89,25.3537,M,-6.8123,M,,*43 
$GPGGA,084039.00,3958.8483202,N,11614.9549177,E,1,05,13.90,25.3495,M,-6.8118,M,,*40 
$GPGGA,084040.00,3958.8413943,N,11614.9606057,E,1,05,13.91,25.6123,M,-6.8114,M,,*42 
$GPGGA,084041.00,3958.8343238,N,11614.9664613,E,1,05,13.91,25.5871,M,-6.8110,M,,*4D 
$GPGGA,084042.00,3958.8293976,N,11614.9652050,E,1,06,2.60,46.0169,M,-6.8111,M,,*7B 
$GPGGA,084043.00,3958.8227864,N,11614.9693641,E,1,06,2.60,51.7727,M,-6.8108,M,,*79 
$GPGGA,084044.00,3958.8157181,N,11614.9749312,E,1,06,2.60,54.0616,M,-6.8104,M,,*70 
$GPGGA,084045.00,3958.8084453,N,11614.9808831,E,1,06,2.60,55.4077,M,-6.8100,M,,*74 
$GPGGA,084046.00,3958.8010161,N,11614.9871063,E,1,06,2.60,56.1050,M,-6.8095,M,,*71 
$GPGGA,084047.00,3958.7934874,N,11614.9934735,E,1,06,2.60,56.6338,M,-6.8090,M,,*76 
$GPGGA,084048.00,3958.7858365,N,11614.9999398,E,1,06,2.59,57.0064,M,-6.8086,M,,*7D 
$GPGGA,084049.00,3958.7780617,N,11615.0065174,E,1,06,2.59,57.1151,M,-6.8081,M,,*75 
$GPGGA,084051.00,3958.7623535,N,11615.0197012,E,1,06,2.59,57.2835,M,-6.8071,M,,*7D 
$GPGGA,084052.00,3958.7544699,N,11615.0263798,E,1,06,2.59,57.4768,M,-6.8066,M,,*73 
$GPGGA,084053.00,3958.7465095,N,11615.0331718,E,1,06,2.59,57.6011,M,-6.8061,M,,*78 
$GPGGA,084054.00,3958.7385573,N,11615.0399120,E,1,06,2.58,57.9515,M,-6.8057,M,,*7E 
$GPGGA,084055.00,3958.7301393,N,11615.0473667,E,1,07,1.25,54.9838,M,-6.8051,M,,*73 
$GPGGA,084056.00,3958.7219477,N,11615.0544685,E,1,07,1.25,52.8195,M,-6.8046,M,,*73 
$GPGGA,084057.00,3958.7141006,N,11615.0611524,E,1,07,1.25,51.9540,M,-6.8041,M,,*7C 
$GPGGA,084058.00,3958.7064598,N,11615.0676367,E,1,07,1.25,51.4584,M,-6.8036,M,,*72 
$GPGGA,084059.00,3958.7003579,N,11615.0723758,E,1,06,2.58,58.2375,M,-6.8033,M,,*7E 
$GPGGA,084100.00,3958.6931566,N,11615.0785099,E,1,06,2.57,58.3207,M,-6.8029,M,,*73 
$GPGGA,084101.00,3958.6861046,N,11615.0845479,E,1,06,2.57,58.3596,M,-6.8024,M,,*7A 
$GPGGA,084102.00,3958.6791956,N,11615.0904374,E,1,06,2.57,58.4506,M,-6.8020,M,,*75 
$GPGGA,084103.00,3958.6723948,N,11615.0962108,E,1,06,2.57,58.4709,M,-6.8016,M,,*73 
$GPGGA,084104.00,3958.6657606,N,11615.1018763,E,1,06,2.57,58.5112,M,-6.8012,M,,*74 
$GPGGA,084105.00,3958.6592854,N,11615.1075034,E,1,06,2.57,58.4710,M,-6.8007,M,,*79 
$GPGGA,084106.00,3958.6529141,N,11615.1129748,E,1,06,2.56,58.4415,M,-6.8003,M,,*70 
$GPGGA,084107.00,3958.6465866,N,11615.1182852,E,1,06,2.56,58.4839,M,-6.8000,M,,*70 
$GPGGA,084108.00,3958.6403465,N,11615.1236089,E,1,06,2.56,58.3340,M,-6.7996,M,,*79 
$GPGGA,084109.00,3958.6342453,N,11615.1288056,E,1,06,2.56,58.4467,M,-6.7992,M,,*79 
$GPGGA,084110.00,3958.6281450,N,11615.1340982,E,1,06,2.56,58.3231,M,-6.7988,M,,*70 
$GPGGA,084111.00,3958.6220665,N,11615.1391871,E,1,06,2.56,58.8414,M,-6.7984,M,,*79 
$GPGGA,084112.00,3958.6157991,N,11615.1445288,E,1,06,2.55,58.8512,M,-6.7981,M,,*7E 
$GPGGA,084113.00,3958.6094125,N,11615.1499426,E,1,06,2.55,58.9140,M,-6.7977,M,,*7E 
$GPGGA,084114.00,3958.5994451,N,11615.1667641,E,1,05,14.06,27.1793,M,-6.7964,M,,*4D 
$GPGGA,084115.00,3958.5927486,N,11615.1724496,E,1,05,14.06,27.1281,M,-6.7960,M,,*42 
$GPGGA,084116.00,3958.5859977,N,11615.1782920,E,1,05,14.06,27.0088,M,-6.7956,M,,*49 
$GPGGA,084117.00,3958.5816799,N,11615.1761460,E,1,06,2.55,49.5319,M,-6.7958,M,,*73 
$GPGGA,084118.00,3958.5753141,N,11615.1807124,E,1,06,2.54,53.3350,M,-6.7954,M,,*76 
$GPGGA,084119.00,3958.5687048,N,11615.1860125,E,1,06,2.54,55.0304,M,-6.7950,M,,*77 
$GPGGA,084120.00,3958.5619915,N,11615.1915305,E,1,06,2.54,56.0429,M,-6.7946,M,,*74 
$GPGGA,084121.00,3958.5551265,N,11615.1972615,E,1,06,2.54,56.6706,M,-6.7942,M,,*7F 
$GPGGA,084122.00,3958.5472988,N,11615.2046626,E,1,07,1.24,51.6168,M,-6.7937,M,,*77 
$GPGGA,084123.00,3958.5399611,N,11615.2109297,E,1,07,1.24,50.3537,M,-6.7932,M,,*70 
$GPGGA,084124.00,3958.5328052,N,11615.2168141,E,1,08,1.07,50.2308,M,-6.7928,M,,*7D 
$GPGGA,084125.00,3958.5256939,N,11615.2226464,E,1,08,1.07,50.2030,M,-6.7924,M,,*7F 
$GPGGA,084126.00,3958.5186109,N,11615.2285010,E,1,08,1.07,50.1079,M,-6.7919,M,,*77 
$GPGGA,084127.00,3958.5128079,N,11615.2329920,E,1,07,1.69,56.1492,M,-6.7916,M,,*76 
$GPGGA,084128.00,3958.5059187,N,11615.2388025,E,1,07,1.69,56.2144,M,-6.7912,M,,*70 
$GPGGA,084129.00,3958.4991774,N,11615.2445561,E,1,07,1.68,56.1201,M,-6.7908,M,,*7F 
$GPGGA,084130.00,3958.4925674,N,11615.2501239,E,1,07,1.68,56.0026,M,-6.7904,M,,*78 
$GPGGA,084131.00,3958.4861197,N,11615.2555595,E,1,07,1.68,55.9471,M,-6.7900,M,,*7A 
$GPGGA,084132.00,3958.4795964,N,11615.2610909,E,1,08,1.07,54.8626,M,-6.7896,M,,*7A 
$GPGGA,084133.00,3958.4729082,N,11615.2667311,E,1,08,1.07,53.0063,M,-6.7892,M,,*72 
$GPGGA,084134.00,3958.4664491,N,11615.2721795,E,1,08,1.07,52.0935,M,-6.7888,M,,*70 
$GPGGA,084135.00,3958.4602099,N,11615.2774406,E,1,08,1.07,51.6097,M,-6.7884,M,,*7C 
$GPGGA,084136.00,3958.4540719,N,11615.2825987,E,1,08,1.07,51.3282,M,-6.7880,M,,*7D 
$GPGGA,084137.00,3958.4480006,N,11615.2876965,E,1,08,1.07,51.1047,M,-6.7876,M,,*72 
$GPGGA,084138.00,3958.4419142,N,11615.2928081,E,1,08,1.07,50.9238,M,-6.7873,M,,*73 
$GPGGA,084139.00,3958.4358332,N,11615.2980150,E,1,09,1.02,50.7623,M,-6.7869,M,,*75 
$GPGGA,084140.00,3958.4296882,N,11615.3032654,E,1,09,1.02,50.6143,M,-6.7865,M,,*76 
$GPGGA,084141.00,3958.4233771,N,11615.3085238,E,1,09,1.02,50.5083,M,-6.7861,M,,*73 
$GPGGA,084142.00,3958.4169073,N,11615.3138895,E,1,09,1.02,50.4012,M,-6.7857,M,,*7F 
$GPGGA,084143.00,3958.4102872,N,11615.3193274,E,1,09,1.02,50.2870,M,-6.7853,M,,*70 
$GPGGA,084144.00,3958.4035002,N,11615.3248146,E,1,09,1.02,50.1884,M,-6.7849,M,,*79 
$GPGGA,084145.00,3958.3967186,N,11615.3302264,E,1,09,1.02,50.0506,M,-6.7845,M,,*7A 
$GPGGA,084146.00,3958.3898973,N,11615.3354771,E,1,08,1.07,50.1399,M,-6.7842,M,,*7A 
$GPGGA,084147.00,3958.3831800,N,11615.3407567,E,1,08,1.07,50.0556,M,-6.7838,M,,*70 
$GPGGA,084148.00,3958.3766021,N,11615.3459406,E,1,08,1.07,50.0214,M,-6.7834,M,,*79 
$GPGGA,084149.00,3958.3703963,N,11615.3508275,E,1,09,1.02,49.9586,M,-6.7831,M,,*7F 
$GPGGA,084150.00,3958.3648899,N,11615.3551430,E,1,09,1.02,49.9547,M,-6.7827,M,,*7C 
$GPGGA,084151.00,3958.3601796,N,11615.3587950,E,1,09,1.02,49.9219,M,-6.7825,M,,*7E 
$GPGGA,084152.00,3958.3563068,N,11615.3616041,E,1,09,1.02,49.8497,M,-6.7823,M,,*79 
$GPGGA,084153.00,3958.3531909,N,11615.3636660,E,1,09,1.02,49.8742,M,-6.7821,M,,*7F 
$GPGGA,084154.00,3958.3506708,N,11615.3651857,E,1,09,1.02,49.8433,M,-6.7820,M,,*7C 
$GPGGA,084155.00,3958.3487508,N,11615.3662072,E,1,09,1.01,49.8423,M,-6.7819,M,,*70 
$GPGGA,084156.00,3958.3471115,N,11615.3670478,E,1,09,1.01,49.8348,M,-6.7819,M,,*75 
$GPGGA,084157.00,3958.3455035,N,11615.3680573,E,1,09,1.01,49.8293,M,-6.7818,M,,*72 
$GPGGA,084158.00,3958.3438450,N,11615.3692717,E,1,09,1.01,49.8754,M,-6.7817,M,,*73 
$GPGGA,084159.00,3958.3421861,N,11615.3706043,E,1,09,1.01,49.8928,M,-6.7816,M,,*7A 
$GPGGA,084200.00,3958.3403146,N,11615.3722149,E,1,09,1.01,49.9086,M,-6.7815,M,,*7B 
$GPGGA,084201.00,3958.3382232,N,11615.3739726,E,1,09,1.01,49.8591,M,-6.7814,M,,*72 
$GPGGA,084202.00,3958.3358120,N,11615.3757925,E,1,08,1.06,50.0521,M,-6.7812,M,,*78 
$GPGGA,084203.00,3958.3332284,N,11615.3778835,E,1,08,1.06,50.0522,M,-6.7811,M,,*75 
$GPGGA,084204.00,3958.3302512,N,11615.3802948,E,1,08,1.06,50.0703,M,-6.7809,M,,*78 
$GPGGA,084205.00,3958.3268896,N,11615.3831324,E,1,08,1.06,50.0495,M,-6.7807,M,,*77 
$GPGGA,084206.00,3958.3231225,N,11615.3864207,E,1,08,1.06,50.0785,M,-6.7805,M,,*7A 
$GPGGA,084207.00,3958.3189347,N,11615.3900185,E,1,08,1.06,50.1413,M,-6.7802,M,,*7E 
$GPGGA,084208.00,3958.3147260,N,11615.3936085,E,1,08,1.06,50.2257,M,-6.7799,M,,*7B 
$GPGGA,084209.00,3958.3102523,N,11615.3974462,E,1,08,1.06,50.2896,M,-6.7797,M,,*79 
$GPGGA,084210.00,3958.3056616,N,11615.4020495,E,1,07,1.24,49.8828,M,-6.7793,M,,*7F 
$GPGGA,084211.00,3958.3004682,N,11615.4067793,E,1,07,1.24,49.9204,M,-6.7790,M,,*74 
$GPGGA,084212.00,3958.2949888,N,11615.4118692,E,1,07,1.24,49.9248,M,-6.7786,M,,*74 
$GPGGA,084213.00,3958.2893979,N,11615.4171066,E,1,07,1.24,49.9306,M,-6.7782,M,,*71 
$GPGGA,084214.00,3958.2837285,N,11615.4223301,E,1,07,1.24,49.9164,M,-6.7779,M,,*74 
$GPGGA,084215.00,3958.2778407,N,11615.4275783,E,1,07,1.24,49.9107,M,-6.7775,M,,*79 
$GPGGA,084216.00,3958.2718876,N,11615.4327499,E,1,07,1.24,49.8742,M,-6.7771,M,,*7A 
$GPGGA,084217.00,3958.2660115,N,11615.4378379,E,1,07,1.24,49.8419,M,-6.7767,M,,*70 
$GPGGA,084218.00,3958.2601889,N,11615.4428554,E,1,07,1.24,49.8009,M,-6.7764,M,,*79 
$GPGGA,084219.00,3958.2544256,N,11615.4477914,E,1,07,1.24,49.7467,M,-6.7760,M,,*77 
$GPGGA,084220.00,3958.2487460,N,11615.4526248,E,1,07,1.24,49.7210,M,-6.7757,M,,*75 
$GPGGA,084221.00,3958.2430907,N,11615.4574272,E,1,07,1.24,49.6973,M,-6.7753,M,,*71 
$GPGGA,084222.00,3958.2374276,N,11615.4622757,E,1,07,1.24,49.6695,M,-6.7749,M,,*76 
$GPGGA,084223.00,3958.2317000,N,11615.4671448,E,1,07,1.24,49.6355,M,-6.7746,M,,*7C 
$GPGGA,084224.00,3958.2258760,N,11615.4721235,E,1,07,1.24,49.5777,M,-6.7742,M,,*7B 
$GPGGA,084225.00,3958.2200019,N,11615.4771674,E,1,07,1.24,49.5129,M,-6.7739,M,,*7B 
$GPGGA,084226.00,3958.2141287,N,11615.4821293,E,1,07,1.24,49.4634,M,-6.7735,M,,*7A 
$GPGGA,084227.00,3958.2082541,N,11615.4870824,E,1,07,1.24,49.4432,M,-6.7731,M,,*7A 
$GPGGA,084228.00,3958.2023446,N,11615.4920218,E,1,07,1.24,49.4070,M,-6.7728,M,,*73 
$GPGGA,084229.00,3958.1964116,N,11615.4970654,E,1,07,1.24,49.4816,M,-6.7724,M,,*76 
$GPGGA,084230.00,3958.1904664,N,11615.5022253,E,1,07,1.24,49.6537,M,-6.7720,M,,*7E 
$GPGGA,084231.00,3958.1843990,N,11615.5075541,E,1,07,1.24,49.6126,M,-6.7717,M,,*7F 
$GPGGA,084232.00,3958.1782252,N,11615.5129281,E,1,07,1.24,49.6690,M,-6.7713,M,,*76 
$GPGGA,084233.00,3958.1719422,N,11615.5183292,E,1,07,1.24,49.7019,M,-6.7709,M,,*7B 
$GPGGA,084234.00,3958.1656590,N,11615.5237978,E,1,07,1.24,49.7704,M,-6.7705,M,,*7A 
$GPGGA,084235.00,3958.1594378,N,11615.5293339,E,1,07,1.24,49.8259,M,-6.7701,M,,*71 
$GPGGA,084236.00,3958.1533151,N,11615.5350565,E,1,07,1.24,49.8778,M,-6.7697,M,,*7F 
$GPGGA,084237.00,3958.1473364,N,11615.5410283,E,1,08,1.06,49.9181,M,-6.7692,M,,*78 
$GPGGA,084238.00,3958.1417362,N,11615.5474109,E,1,08,1.06,49.9800,M,-6.7688,M,,*7B 
$GPGGA,084239.00,3958.1366321,N,11615.5542189,E,1,08,1.06,50.0100,M,-6.7683,M,,*73 
$GPGGA,084240.00,3958.1319965,N,11615.5614926,E,1,09,1.01,50.0265,M,-6.7677,M,,*7F 
$GPGGA,084241.00,3958.1277925,N,11615.5691351,E,1,09,1.01,50.0225,M,-6.7672,M,,*75 
$GPGGA,084242.00,3958.1240332,N,11615.5770712,E,1,09,1.01,50.0240,M,-6.7666,M,,*75 
$GPGGA,084243.00,3958.1207806,N,11615.5853163,E,1,09,1.01,50.0127,M,-6.7660,M,,*71 
$GPGGA,084244.00,3958.1181430,N,11615.5938960,E,1,09,1.01,49.9916,M,-6.7654,M,,*79 
$GPGGA,084245.00,3958.1161502,N,11615.6027938,E,1,09,1.01,49.9819,M,-6.7647,M,,*73 
$GPGGA,084246.00,3958.1146703,N,11615.6119412,E,1,09,1.01,49.9400,M,-6.7641,M,,*7D 
$GPGGA,084247.00,3958.1135796,N,11615.6212511,E,1,09,1.01,49.9003,M,-6.7634,M,,*7B 
$GPGGA,084248.00,3958.1129118,N,11615.6306409,E,1,09,1.01,49.8532,M,-6.7627,M,,*71 
$GPGGA,084249.00,3958.1126015,N,11615.6400188,E,1,09,1.01,49.7916,M,-6.7620,M,,*7C 
$GPGGA,084250.00,3958.1125326,N,11615.6493914,E,1,09,1.01,49.7194,M,-6.7614,M,,*76 
$GPGGA,084252.00,3958.1126721,N,11615.6679538,E,1,09,1.01,49.5853,M,-6.7600,M,,*75 
$GPGGA,084253.00,3958.1127653,N,11615.6769558,E,1,09,1.01,49.5229,M,-6.7594,M,,*7E 
$GPGGA,084254.00,3958.1128354,N,11615.6859086,E,1,09,1.01,49.4609,M,-6.7587,M,,*7B 
$GPGGA,084255.00,3958.1129016,N,11615.6949245,E,1,09,1.01,49.4123,M,-6.7581,M,,*7A 
$GPGGA,084256.00,3958.1129866,N,11615.7039876,E,1,09,1.01,49.3840,M,-6.7574,M,,*72 
$GPGGA,084257.00,3958.1131441,N,11615.7130341,E,1,09,1.01,49.3371,M,-6.7567,M,,*7F 
$GPGGA,084258.00,3958.1133373,N,11615.7220734,E,1,09,1.01,49.2822,M,-6.7561,M,,*7A 
$GPGGA,084259.00,3958.1135093,N,11615.7311456,E,1,09,1.01,49.2338,M,-6.7554,M,,*72 
$GPGGA,084300.00,3958.1136415,N,11615.7402884,E,1,09,1.01,49.2005,M,-6.7548,M,,*70 
$GPGGA,084301.00,3958.1137678,N,11615.7496640,E,1,09,1.01,49.1751,M,-6.7541,M,,*7E 
$GPGGA,084302.00,3958.1138968,N,11615.7593002,E,1,09,1.01,49.1377,M,-6.7534,M,,*7A 
$GPGGA,084303.00,3958.1140210,N,11615.7691941,E,1,09,1.01,49.1037,M,-6.7527,M,,*7A 
$GPGGA,084304.00,3958.1141580,N,11615.7792523,E,1,09,1.01,49.0592,M,-6.7519,M,,*7E 
$GPGGA,084305.00,3958.1143229,N,11615.7892061,E,1,09,1.01,49.0243,M,-6.7512,M,,*75 
$GPGGA,084306.00,3958.1144560,N,11615.7991372,E,1,09,1.01,48.9874,M,-6.7505,M,,*78 
$GPGGA,084307.00,3958.1145504,N,11615.8092659,E,1,09,1.01,48.9262,M,-6.7498,M,,*7B 
$GPGGA,084308.00,3958.1146796,N,11615.8196360,E,1,09,1.01,48.8817,M,-6.7490,M,,*75 
$GPGGA,084309.00,3958.1147886,N,11615.8302506,E,1,09,1.01,48.8783,M,-6.7482,M,,*73 
$GPGGA,084310.00,3958.1148793,N,11615.8411368,E,1,09,1.01,48.8276,M,-6.7474,M,,*72 
$GPGGA,084311.00,3958.1150072,N,11615.8523002,E,1,09,1.01,48.8177,M,-6.7466,M,,*7C 
$GPGGA,084312.00,3958.1150929,N,11615.8636445,E,1,09,1.01,49.0096,M,-6.7458,M,,*72 
$GPGGA,084313.00,3958.1152114,N,11615.8752292,E,1,09,1.01,49.2129,M,-6.7450,M,,*77 
$GPGGA,084314.00,3958.1153779,N,11615.8870054,E,1,09,1.01,49.4314,M,-6.7441,M,,*71 
$GPGGA,084315.00,3958.1155489,N,11615.8988420,E,1,09,1.01,49.8265,M,-6.7433,M,,*75 
$GPGGA,084316.00,3958.1157767,N,11615.9107515,E,1,09,1.01,50.2663,M,-6.7424,M,,*78 
$GPGGA,084317.00,3958.1160167,N,11615.9226749,E,1,09,1.01,50.6411,M,-6.7415,M,,*71 
$GPGGA,084318.00,3958.1161653,N,11615.9343432,E,1,09,1.01,51.1796,M,-6.7407,M,,*7B 
$GPGGA,084319.00,3958.1163505,N,11615.9456757,E,1,09,1.01,51.5591,M,-6.7399,M,,*7A 
$GPGGA,084320.00,3958.1165643,N,11615.9566702,E,1,09,1.01,51.9429,M,-6.7391,M,,*73 
$GPGGA,084321.00,3958.1168970,N,11615.9673385,E,1,09,1.01,52.0945,M,-6.7383,M,,*72 
$GPGGA,084322.00,3958.1171128,N,11615.9774864,E,1,09,1.01,52.4628,M,-6.7376,M,,*74 
$GPGGA,084323.00,3958.1173618,N,11615.9874239,E,1,09,1.01,52.8277,M,-6.7368,M,,*73 
$GPGGA,084324.00,3958.1176625,N,11615.9973333,E,1,09,1.01,53.2006,M,-6.7361,M,,*74 
$GPGGA,084325.00,3958.1179117,N,11616.0072586,E,1,09,1.01,53.5252,M,-6.7354,M,,*74 
$GPGGA,084326.00,3958.1181459,N,11616.0172816,E,1,09,1.01,53.8143,M,-6.7347,M,,*76 
$GPGGA,084327.00,3958.1183602,N,11616.0274710,E,1,09,1.01,53.9814,M,-6.7339,M,,*76 
$GPGGA,084328.00,3958.1185243,N,11616.0378419,E,1,09,1.01,54.1124,M,-6.7332,M,,*77 
$GPGGA,084329.00,3958.1186147,N,11616.0484034,E,1,09,1.01,54.0831,M,-6.7324,M,,*76 
$GPGGA,084330.00,3958.1187063,N,11616.0591508,E,1,09,1.01,53.9661,M,-6.7316,M,,*73 
$GPGGA,084331.00,3958.1188219,N,11616.0700449,E,1,09,1.01,53.7583,M,-6.7308,M,,*72 
$GPGGA,084332.00,3958.1189720,N,11616.0810427,E,1,09,1.01,53.4805,M,-6.7300,M,,*71 
$GPGGA,084333.00,3958.1191661,N,11616.0921919,E,1,09,1.01,53.1292,M,-6.7292,M,,*75 
$GPGGA,084334.00,3958.1193582,N,11616.1033620,E,1,09,1.01,52.6580,M,-6.7284,M,,*75 
$GPGGA,084335.00,3958.1194608,N,11616.1144282,E,1,09,1.01,52.1801,M,-6.7276,M,,*71 
$GPGGA,084336.00,3958.1194640,N,11616.1252959,E,1,09,1.01,51.7056,M,-6.7268,M,,*77 
$GPGGA,084337.00,3958.1193152,N,11616.1355303,E,1,09,1.01,51.2582,M,-6.7261,M,,*76 
$GPGGA,084338.00,3958.1189823,N,11616.1451731,E,1,09,1.01,50.8277,M,-6.7254,M,,*7B 
$GPGGA,084339.00,3958.1182926,N,11616.1543434,E,1,09,1.01,50.4986,M,-6.7247,M,,*7A 
$GPGGA,084340.00,3958.1181810,N,11616.1621193,E,1,08,1.64,54.4479,M,-6.7242,M,,*72 
$GPGGA,084347.00,3958.0875752,N,11616.2104217,E,1,05,1.43,51.1105,M,-6.7207,M,,*74 
$GPGGA,084348.00,3958.0809717,N,11616.2134133,E,1,07,1.16,50.2856,M,-6.7204,M,,*7B 
$GPGGA,084349.00,3958.0737436,N,11616.2154901,E,1,08,1.06,50.2818,M,-6.7203,M,,*74 
$GPGGA,084350.00,3958.0666404,N,11616.2166574,E,1,08,1.06,50.5438,M,-6.7202,M,,*7F 
$GPGGA,084351.00,3958.0596104,N,11616.2167097,E,1,09,1.01,50.9310,M,-6.7202,M,,*79 
$GPGGA,084352.00,3958.0529119,N,11616.2155620,E,1,09,1.01,51.2248,M,-6.7203,M,,*7E 
$GPGGA,084353.00,3958.0465297,N,11616.2132323,E,1,09,1.01,51.6137,M,-6.7205,M,,*7D 
$GPGGA,084354.00,3958.0405743,N,11616.2097775,E,1,09,1.01,52.0549,M,-6.7207,M,,*73 
$GPGGA,084355.00,3958.0353231,N,11616.2051415,E,1,09,1.00,52.4910,M,-6.7210,M,,*7A 
$GPGGA,084356.00,3958.0311742,N,11616.1994336,E,1,09,1.00,52.8432,M,-6.7215,M,,*7F 
$GPGGA,084357.00,3958.0284111,N,11616.1929571,E,1,09,1.00,53.1853,M,-6.7219,M,,*7F 
$GPGGA,084358.00,3958.0271427,N,11616.1860551,E,1,09,1.00,53.5477,M,-6.7224,M,,*74 
$GPGGA,084359.00,3958.0272177,N,11616.1790390,E,1,09,1.00,53.8179,M,-6.7229,M,,*76 
$GPGGA,084400.00,3958.0285665,N,11616.1722589,E,1,09,1.00,54.1252,M,-6.7234,M,,*7E 
$GPGGA,084401.00,3958.0310382,N,11616.1660938,E,1,09,1.00,54.3731,M,-6.7239,M,,*70 
$GPGGA,084402.00,3958.0344865,N,11616.1607722,E,1,09,1.00,54.6561,M,-6.7243,M,,*7B 
$GPGGA,084403.00,3958.0387217,N,11616.1566100,E,1,09,1.00,54.9030,M,-6.7246,M,,*73 
$GPGGA,084404.00,3958.0435114,N,11616.1537251,E,1,09,1.00,55.1383,M,-6.7248,M,,*75 
$GPGGA,084405.00,3958.0486507,N,11616.1523583,E,1,09,1.00,55.3040,M,-6.7249,M,,*78 
$GPGGA,084406.00,3958.0539861,N,11616.1525742,E,1,09,1.00,55.5172,M,-6.7249,M,,*7C 
$GPGGA,084407.00,3958.0593663,N,11616.1541073,E,1,09,1.00,55.6112,M,-6.7247,M,,*7D 
$GPGGA,084408.00,3958.0649157,N,11616.1564872,E,1,09,1.00,55.7645,M,-6.7246,M,,*7D 
$GPGGA,084409.00,3958.0706156,N,11616.1594847,E,1,09,1.00,55.8991,M,-6.7244,M,,*75 
$GPGGA,084410.00,3958.0765396,N,11616.1627738,E,1,09,1.00,56.0324,M,-6.7241,M,,*70 
$GPGGA,084411.00,3958.0826919,N,11616.1663544,E,1,09,1.00,56.1490,M,-6.7239,M,,*7B 
$GPGGA,084412.00,3958.0890781,N,11616.1702358,E,1,09,1.00,56.4409,M,-6.7236,M,,*7D 
$GPGGA,084413.00,3958.0956782,N,11616.1744860,E,1,09,1.00,56.5277,M,-6.7233,M,,*7D 
$GPGGA,084414.00,3958.1025088,N,11616.1791369,E,1,09,1.00,56.6074,M,-6.7229,M,,*78 
$GPGGA,084415.00,3958.1095469,N,11616.1842340,E,1,09,1.00,56.6355,M,-6.7226,M,,*7C 
$GPGGA,084416.00,3958.1167465,N,11616.1898553,E,1,09,1.00,56.6260,M,-6.7222,M,,*7F 
$GPGGA,084417.00,3958.1240616,N,11616.1960054,E,1,09,1.00,56.5572,M,-6.7217,M,,*7B 
$GPGGA,084418.00,3958.1314138,N,11616.2026563,E,1,09,1.00,56.4411,M,-6.7212,M,,*76 
$GPGGA,084419.00,3958.1387717,N,11616.2097756,E,1,09,1.00,56.2699,M,-6.7207,M,,*78 
$GPGGA,084420.00,3958.1461410,N,11616.2173402,E,1,09,1.00,56.0531,M,-6.7202,M,,*76 
$GPGGA,084421.00,3958.1534939,N,11616.2253736,E,1,09,1.00,55.7351,M,-6.7196,M,,*7F 
$GPGGA,084422.00,3958.1608065,N,11616.2339307,E,1,09,1.00,55.3980,M,-6.7190,M,,*7F 
$GPGGA,084423.00,3958.1680959,N,11616.2429810,E,1,09,1.00,54.9998,M,-6.7183,M,,*73 
$GPGGA,084424.00,3958.1753952,N,11616.2524975,E,1,09,1.00,54.5398,M,-6.7176,M,,*72 
$GPGGA,084425.00,3958.1826600,N,11616.2625250,E,1,09,1.00,54.0207,M,-6.7169,M,,*74 
$GPGGA,084426.00,3958.1897360,N,11616.2730783,E,1,09,1.00,53.5910,M,-6.7161,M,,*77 
$GPGGA,084427.00,3958.1967256,N,11616.2843032,E,1,09,1.00,52.9816,M,-6.7153,M,,*71 
$GPGGA,084428.00,3958.2037075,N,11616.2961089,E,1,09,1.00,52.1515,M,-6.7145,M,,*72 
$GPGGA,084429.00,3958.2104510,N,11616.3081443,E,1,09,1.00,51.4644,M,-6.7136,M,,*75 
$GPGGA,084430.00,3958.2169813,N,11616.3203007,E,1,09,1.00,50.8077,M,-6.7127,M,,*7F 
$GPGGA,084431.00,3958.2233926,N,11616.3325201,E,1,09,1.00,50.2062,M,-6.7118,M,,*76 
$GPGGA,084432.00,3958.2296401,N,11616.3449544,E,1,09,1.00,49.6933,M,-6.7109,M,,*78 
$GPGGA,084433.00,3958.2357450,N,11616.3573893,E,1,09,1.00,49.3010,M,-6.7100,M,,*7A 
$GPGGA,084434.00,3958.2418187,N,11616.3696883,E,1,09,1.00,49.0108,M,-6.7091,M,,*75 
$GPGGA,084435.00,3958.2477647,N,11616.3819069,E,1,09,1.00,48.7855,M,-6.7082,M,,*76 
$GPGGA,084436.00,3958.2535556,N,11616.3941097,E,1,09,1.00,48.6701,M,-6.7074,M,,*7A 
$GPGGA,084437.00,3958.2592683,N,11616.4063402,E,1,09,1.00,48.6001,M,-6.7065,M,,*7C 
$GPGGA,084438.00,3958.2649630,N,11616.4183946,E,1,09,1.00,48.6580,M,-6.7056,M,,*70 
$GPGGA,084439.00,3958.2706052,N,11616.4303040,E,1,09,1.00,48.7359,M,-6.7047,M,,*7F 
$GPGGA,084440.00,3958.2761876,N,11616.4421591,E,1,09,1.00,48.7510,M,-6.7039,M,,*72 
$GPGGA,084441.00,3958.2817770,N,11616.4540692,E,1,09,1.00,48.8226,M,-6.7030,M,,*76 
$GPGGA,084442.00,3958.2873647,N,11616.4660088,E,1,09,1.00,48.8531,M,-6.7022,M,,*7C 
$GPGGA,084443.00,3958.2928641,N,11616.4778206,E,1,09,1.00,49.0737,M,-6.7013,M,,*77 
$GPGGA,084444.00,3958.2983997,N,11616.4896565,E,1,09,1.00,49.1421,M,-6.7004,M,,*7B 
$GPGGA,084445.00,3958.3039404,N,11616.5014879,E,1,09,1.00,49.2019,M,-6.6996,M,,*78 
$GPGGA,084446.00,3958.3095563,N,11616.5133225,E,1,09,1.00,49.2465,M,-6.6987,M,,*75 
$GPGGA,084447.00,3958.3151322,N,11616.5252370,E,1,09,1.00,49.3863,M,-6.6979,M,,*71 
$GPGGA,084448.00,3958.3206826,N,11616.5371746,E,1,09,1.00,49.5844,M,-6.6970,M,,*7B 
$GPGGA,084449.00,3958.3262097,N,11616.5490538,E,1,09,1.00,49.8494,M,-6.6961,M,,*75 
$GPGGA,084450.00,3958.3317513,N,11616.5608341,E,1,09,1.00,50.1652,M,-6.6953,M,,*74 
$GPGGA,084451.00,3958.3373288,N,11616.5724997,E,1,09,1.00,50.5395,M,-6.6944,M,,*70 
$GPGGA,084453.00,3958.3485340,N,11616.5951868,E,1,09,1.00,51.3432,M,-6.6928,M,,*73 
$GPGGA,084454.00,3958.3539533,N,11616.6058804,E,1,09,1.00,51.7272,M,-6.6920,M,,*77 
$GPGGA,084455.00,3958.3593570,N,11616.6161965,E,1,09,1.00,52.1160,M,-6.6913,M,,*79 
$GPGGA,084456.00,3958.3648273,N,11616.6262089,E,1,09,1.00,52.5402,M,-6.6906,M,,*71 
$GPGGA,084457.00,3958.3704405,N,11616.6360549,E,1,09,1.00,52.9477,M,-6.6898,M,,*7C 
$GPGGA,084458.00,3958.3761383,N,11616.6459063,E,1,09,1.00,53.2841,M,-6.6891,M,,*73 
$GPGGA,084459.00,3958.3818841,N,11616.6558345,E,1,09,1.00,53.5800,M,-6.6884,M,,*77 
$GPGGA,084500.00,3958.3877015,N,11616.6658402,E,1,09,1.00,53.8353,M,-6.6877,M,,*71 
$GPGGA,084501.00,3958.3936024,N,11616.6758675,E,1,09,1.00,54.1008,M,-6.6870,M,,*71 
$GPGGA,084502.00,3958.3995985,N,11616.6859386,E,1,09,1.00,54.2776,M,-6.6862,M,,*70 
$GPGGA,084503.00,3958.4056450,N,11616.6960161,E,1,09,1.00,54.5721,M,-6.6855,M,,*74 
$GPGGA,084504.00,3958.4119481,N,11616.7062918,E,1,09,1.00,54.4944,M,-6.6848,M,,*79 
$GPGGA,084505.00,3958.4183264,N,11616.7165909,E,1,09,1.00,54.5058,M,-6.6840,M,,*7D 
$GPGGA,084506.00,3958.4248199,N,11616.7269933,E,1,09,1.00,54.5100,M,-6.6833,M,,*75 
$GPGGA,084507.00,3958.4314535,N,11616.7374470,E,1,09,1.00,54.4039,M,-6.6825,M,,*74 
$GPGGA,084508.00,3958.4382698,N,11616.7479488,E,1,09,1.00,54.2843,M,-6.6817,M,,*7F 
$GPGGA,084509.00,3958.4452841,N,11616.7585072,E,1,09,1.00,54.0692,M,-6.6810,M,,*7A 
$GPGGA,084510.00,3958.4524549,N,11616.7691672,E,1,09,1.00,53.8244,M,-6.6802,M,,*74 
$GPGGA,084511.00,3958.4597385,N,11616.7798515,E,1,09,1.00,53.5242,M,-6.6794,M,,*7A 
$GPGGA,084512.00,3958.4671369,N,11616.7904940,E,1,09,1.00,53.1547,M,-6.6787,M,,*73 
$GPGGA,084513.00,3958.4746736,N,11616.8011348,E,1,09,1.00,52.7647,M,-6.6779,M,,*7C 
$GPGGA,084514.00,3958.4822806,N,11616.8116356,E,1,09,1.00,52.2955,M,-6.6771,M,,*72 
$GPGGA,084515.00,3958.4899983,N,11616.8219309,E,1,09,1.00,51.7391,M,-6.6764,M,,*79 
$GPGGA,084516.00,3958.4978657,N,11616.8320297,E,1,09,1.00,51.1732,M,-6.6757,M,,*74 
$GPGGA,084517.00,3958.5058129,N,11616.8419809,E,1,09,1.00,50.5999,M,-6.6749,M,,*74 
$GPGGA,084518.00,3958.5138625,N,11616.8517928,E,1,09,1.00,50.0285,M,-6.6742,M,,*72 
$GPGGA,084519.00,3958.5221671,N,11616.8615709,E,1,09,1.00,49.5803,M,-6.6735,M,,*7C 
$GPGGA,084520.00,3958.5306757,N,11616.8712878,E,1,09,1.00,49.0963,M,-6.6728,M,,*76 
$GPGGA,084521.00,3958.5393902,N,11616.8810096,E,1,09,1.00,48.6166,M,-6.6721,M,,*73 
$GPGGA,084522.00,3958.5483244,N,11616.8906786,E,1,09,1.00,48.1546,M,-6.6714,M,,*78 
$GPGGA,084523.00,3958.5575040,N,11616.9002589,E,1,09,1.00,47.7225,M,-6.6707,M,,*7F 
$GPGGA,084524.00,3958.5668561,N,11616.9098597,E,1,09,1.00,47.2814,M,-6.6700,M,,*77 
$GPGGA,084525.00,3958.5763935,N,11616.9194713,E,1,09,1.00,46.9382,M,-6.6693,M,,*77 
$GPGGA,084526.00,3958.5860064,N,11616.9290904,E,1,09,1.00,46.6019,M,-6.6686,M,,*70 
$GPGGA,084527.00,3958.5956612,N,11616.9386508,E,1,09,1.00,46.2894,M,-6.6679,M,,*7D 
$GPGGA,084528.00,3958.6053292,N,11616.9481156,E,1,09,1.00,46.0634,M,-6.6673,M,,*72 
$GPGGA,084529.00,3958.6149216,N,11616.9574973,E,1,09,1.00,45.8716,M,-6.6666,M,,*7F 
$GPGGA,084530.00,3958.6244624,N,11616.9668555,E,1,09,1.00,45.7235,M,-6.6659,M,,*7D 
$GPGGA,084531.00,3958.6339811,N,11616.9761697,E,1,09,1.00,45.6070,M,-6.6652,M,,*73 
$GPGGA,084532.00,3958.6434411,N,11616.9854654,E,1,09,1.00,45.5214,M,-6.6646,M,,*76 
$GPGGA,084533.00,3958.6528683,N,11616.9947543,E,1,09,1.00,45.4755,M,-6.6639,M,,*7D 
$GPGGA,084534.00,3958.6623081,N,11617.0039969,E,1,09,1.00,45.3950,M,-6.6632,M,,*7D 
$GPGGA,084535.00,3958.6717564,N,11617.0132541,E,1,09,1.00,45.3464,M,-6.6625,M,,*74 
$GPGGA,084536.00,3958.6812065,N,11617.0225828,E,1,09,1.00,45.3565,M,-6.6619,M,,*71 
$GPGGA,084537.00,3958.6906856,N,11617.0319623,E,1,09,1.00,45.4000,M,-6.6612,M,,*7D 
$GPGGA,084538.00,3958.7007769,N,11617.0419904,E,1,04,3.23,41.9184,M,-6.6605,M,,*79 
$GPGGA,084539.00,3958.7095442,N,11617.0510694,E,1,06,1.34,46.5321,M,-6.6598,M,,*70 
$GPGGA,084540.00,3958.7191722,N,11617.0605718,E,1,07,1.14,46.7576,M,-6.6591,M,,*70 
$GPGGA,084541.00,3958.7288584,N,11617.0700913,E,1,08,1.05,47.0117,M,-6.6584,M,,*7B 
$GPGGA,084542.00,3958.7388058,N,11617.0798368,E,1,09,1.00,46.8331,M,-6.6577,M,,*7D 
$GPGGA,084543.00,3958.7485485,N,11617.0894082,E,1,09,1.00,47.2173,M,-6.6570,M,,*7E 
$GPGGA,084544.00,3958.7583075,N,11617.0989892,E,1,09,1.00,47.6592,M,-6.6563,M,,*7C 
$GPGGA,084545.00,3958.7680624,N,11617.1086020,E,1,09,1.00,48.1166,M,-6.6556,M,,*78 
$GPGGA,084546.00,3958.7778006,N,11617.1182790,E,1,09,1.00,48.5424,M,-6.6549,M,,*7B 
$GPGGA,084547.00,3958.7875208,N,11617.1280205,E,1,09,1.00,48.8940,M,-6.6542,M,,*75 
$GPGGA,084548.00,3958.7972379,N,11617.1378224,E,1,09,1.00,49.2097,M,-6.6535,M,,*76 
$GPGGA,084549.00,3958.8069311,N,11617.1477338,E,1,09,1.00,49.4545,M,-6.6528,M,,*71 
$GPGGA,084550.00,3958.8165342,N,11617.1577839,E,1,09,1.00,49.6066,M,-6.6521,M,,*76 
$GPGGA,084551.00,3958.8259197,N,11617.1678958,E,1,09,1.00,49.6891,M,-6.6514,M,,*7D 
$GPGGA,084552.00,3958.8350311,N,11617.1781184,E,1,09,1.00,49.7246,M,-6.6506,M,,*76 
$GPGGA,084553.00,3958.8438890,N,11617.1884537,E,1,09,1.00,49.5867,M,-6.6499,M,,*76 
$GPGGA,084554.00,3958.8525597,N,11617.1989354,E,1,09,1.00,49.3814,M,-6.6491,M,,*73 
$GPGGA,084555.00,3958.8610417,N,11617.2095638,E,1,09,1.00,49.1508,M,-6.6483,M,,*77 
$GPGGA,084556.00,3958.8692914,N,11617.2204133,E,1,09,1.00,48.8735,M,-6.6476,M,,*78 
$GPGGA,084557.00,3958.8773086,N,11617.2314809,E,1,09,1.00,48.5285,M,-6.6468,M,,*79 
$GPGGA,084558.00,3958.8851060,N,11617.2427823,E,1,09,1.00,48.0850,M,-6.6459,M,,*7B 
$GPGGA,084559.00,3958.8926836,N,11617.2542029,E,1,09,1.00,47.6435,M,-6.6451,M,,*7E 
$GPGGA,084600.00,3958.9000082,N,11617.2656564,E,1,09,1.00,47.2473,M,-6.6443,M,,*75 
$GPGGA,084601.00,3958.9071061,N,11617.2771479,E,1,09,1.00,46.8629,M,-6.6435,M,,*71 
$GPGGA,084602.00,3958.9139671,N,11617.2886885,E,1,09,1.00,46.5183,M,-6.6426,M,,*78 
$GPGGA,084603.00,3958.9205646,N,11617.3002929,E,1,09,1.00,46.2073,M,-6.6418,M,,*77 
$GPGGA,084604.00,3958.9268562,N,11617.3120231,E,1,09,0.99,45.9196,M,-6.6409,M,,*7E 
$GPGGA,084606.00,3958.9387502,N,11617.3357705,E,1,09,0.99,45.4089,M,-6.6392,M,,*7D 
$GPGGA,084607.00,3958.9444107,N,11617.3477634,E,1,09,0.99,45.1561,M,-6.6383,M,,*75 
$GPGGA,084608.00,3958.9498589,N,11617.3598118,E,1,09,0.99,44.9253,M,-6.6375,M,,*76 
$GPGGA,084609.00,3958.9549879,N,11617.3719170,E,1,09,0.99,44.9523,M,-6.6366,M,,*7F 
$GPGGA,084610.00,3958.9599722,N,11617.3842465,E,1,09,0.99,44.8069,M,-6.6357,M,,*73 
$GPGGA,084611.00,3958.9647802,N,11617.3966997,E,1,09,0.99,44.6581,M,-6.6348,M,,*7B 
$GPGGA,084612.00,3958.9694871,N,11617.4092914,E,1,09,0.99,44.3546,M,-6.6339,M,,*74 
$GPGGA,084613.00,3958.9738919,N,11617.4218954,E,1,09,0.99,44.2845,M,-6.6330,M,,*7F 
$GPGGA,084614.00,3958.9780855,N,11617.4345439,E,1,09,0.99,44.2376,M,-6.6321,M,,*76 
$GPGGA,084615.00,3958.9820706,N,11617.4472005,E,1,09,0.99,44.2144,M,-6.6312,M,,*70 
$GPGGA,084616.00,3958.9858671,N,11617.4598361,E,1,09,0.99,44.2385,M,-6.6302,M,,*77 
$GPGGA,084617.00,3958.9895286,N,11617.4725588,E,1,09,0.99,44.2885,M,-6.6293,M,,*7C 
$GPGGA,084618.00,3958.9937041,N,11617.4853850,E,1,07,1.68,45.7509,M,-6.6284,M,,*7F 
$GPGGA,084619.00,3958.9977984,N,11617.4985138,E,1,04,3.13,47.3299,M,-6.6274,M,,*7D 
$GPGGA,084620.00,3959.0007939,N,11617.5116420,E,1,04,3.13,47.4171,M,-6.6265,M,,*7A 
$GPGGA,084621.00,3959.0031805,N,11617.5251058,E,1,08,1.01,45.3501,M,-6.6255,M,,*73 
$GPGGA,084622.00,3959.0047792,N,11617.5382899,E,1,10,0.90,45.7118,M,-6.6246,M,,*70 
$GPGGA,084623.00,3959.0069290,N,11617.5515580,E,1,10,0.90,45.8733,M,-6.6236,M,,*70 
$GPGGA,084624.00,3959.0088911,N,11617.5646886,E,1,10,0.90,45.4773,M,-6.6227,M,,*7C 
$GPGGA,084625.00,3959.0109397,N,11617.5779762,E,1,10,0.90,46.2159,M,-6.6217,M,,*71 
$GPGGA,084626.00,3959.0126951,N,11617.5910991,E,1,10,0.90,46.2837,M,-6.6208,M,,*73 
$GPGGA,084627.00,3959.0140165,N,11617.6038535,E,1,09,0.98,47.2871,M,-6.6198,M,,*76 
$GPGGA,084628.00,3959.0153356,N,11617.6165409,E,1,09,0.98,47.3672,M,-6.6189,M,,*72 
$GPGGA,084629.00,3959.0167947,N,11617.6290508,E,1,08,1.19,47.7121,M,-6.6180,M,,*72 
$GPGGA,084635.00,3959.0216703,N,11617.7025650,E,1,09,0.98,52.5297,M,-6.6127,M,,*7B 
$GPGGA,084636.00,3959.0221380,N,11617.7144631,E,1,09,0.98,50.9045,M,-6.6118,M,,*7D 
$GPGGA,084637.00,3959.0243955,N,11617.7253484,E,1,08,1.41,55.0275,M,-6.6110,M,,*72 
$GPGGA,084638.00,3959.0248144,N,11617.7374375,E,1,08,1.41,55.1221,M,-6.6102,M,,*70 
$GPGGA,084639.00,3959.0252230,N,11617.7495141,E,1,08,1.42,55.2394,M,-6.6093,M,,*71 
$GPGGA,084640.00,3959.0256222,N,11617.7614990,E,1,08,1.42,55.3261,M,-6.6084,M,,*7B 
$GPGGA,084641.00,3959.0259976,N,11617.7733390,E,1,08,1.42,55.4132,M,-6.6076,M,,*7E 
$GPGGA,084642.00,3959.0263199,N,11617.7850083,E,1,08,1.42,55.4933,M,-6.6067,M,,*7F 
$GPGGA,084643.00,3959.0260114,N,11617.7969029,E,1,09,0.98,53.6805,M,-6.6059,M,,*79 
$GPGGA,084644.00,3959.0269326,N,11617.8077803,E,1,08,1.42,55.7030,M,-6.6051,M,,*7B 
$GPGGA,084645.00,3959.0272051,N,11617.8187943,E,1,08,1.42,55.8304,M,-6.6043,M,,*70 
$GPGGA,084646.00,3959.0274732,N,11617.8296572,E,1,08,1.42,55.9668,M,-6.6035,M,,*75 
$GPGGA,084647.00,3959.0277290,N,11617.8405055,E,1,08,1.42,56.1141,M,-6.6027,M,,*72 
$GPGGA,084648.00,3959.0280334,N,11617.8514393,E,1,08,1.42,56.2550,M,-6.6019,M,,*78 
$GPGGA,084649.00,3959.0283671,N,11617.8625171,E,1,08,1.42,56.3906,M,-6.6011,M,,*77 
$GPGGA,084650.00,3959.0286833,N,11617.8737343,E,1,08,1.42,56.5178,M,-6.6003,M,,*77 
$GPGGA,084651.00,3959.0289877,N,11617.8850838,E,1,08,1.42,56.6679,M,-6.5995,M,,*70 
$GPGGA,084652.00,3959.0293152,N,11617.8965668,E,1,08,1.42,56.8157,M,-6.5987,M,,*7C 
$GPGGA,084653.00,3959.0296889,N,11617.9081309,E,1,08,1.42,56.9582,M,-6.5978,M,,*7A 
$GPGGA,084654.00,3959.0300655,N,11617.9194881,E,1,08,1.42,57.0698,M,-6.5970,M,,*7A 
$GPGGA,084655.00,3959.0304253,N,11617.9307632,E,1,08,1.42,57.1484,M,-6.5962,M,,*7E 
$GPGGA,084656.00,3959.0307932,N,11617.9420723,E,1,08,1.42,57.2223,M,-6.5954,M,,*7C 
$GPGGA,084657.00,3959.0307408,N,11617.9537547,E,1,09,0.98,55.8737,M,-6.5945,M,,*71 
$GPGGA,084658.00,3959.0307948,N,11617.9653639,E,1,09,0.98,54.9335,M,-6.5937,M,,*7F 
$GPGGA,084659.00,3959.0308993,N,11617.9766934,E,1,09,0.98,54.2804,M,-6.5929,M,,*7F 
$GPGGA,084700.00,3959.0310299,N,11617.9877938,E,1,09,0.98,53.7674,M,-6.5921,M,,*7A 
$GPGGA,084701.00,3959.0312515,N,11617.9987660,E,1,09,0.98,53.4732,M,-6.5913,M,,*77 
$GPGGA,084702.00,3959.0326120,N,11618.0090519,E,1,08,1.42,56.9873,M,-6.5905,M,,*77 
$GPGGA,084703.00,3959.0329330,N,11618.0201542,E,1,08,1.42,56.8340,M,-6.5897,M,,*7E 
$GPGGA,084704.00,3959.0332916,N,11618.0314612,E,1,08,1.42,56.6373,M,-6.5889,M,,*7F 
$GPGGA,084705.00,3959.0336244,N,11618.0430422,E,1,10,0.90,56.2010,M,-6.5881,M,,*7B 
$GPGGA,084706.00,3959.0336064,N,11618.0551278,E,1,10,0.90,54.4675,M,-6.5872,M,,*7A 
$GPGGA,084707.00,3959.0335838,N,11618.0673219,E,1,09,0.99,52.6448,M,-6.5863,M,,*74 
$GPGGA,084708.00,3959.0338136,N,11618.0797475,E,1,09,0.99,51.8061,M,-6.5854,M,,*70 
$GPGGA,084709.00,3959.0341765,N,11618.0923855,E,1,09,0.99,51.4049,M,-6.5845,M,,*76 
$GPGGA,084710.00,3959.0355509,N,11618.1047212,E,1,08,1.60,54.3889,M,-6.5836,M,,*74 
$GPGGA,084711.00,3959.0359064,N,11618.1174720,E,1,08,1.60,54.1060,M,-6.5827,M,,*7F 
$GPGGA,084712.00,3959.0362247,N,11618.1300310,E,1,08,1.60,53.8222,M,-6.5818,M,,*77 
$GPGGA,084713.00,3959.0366041,N,11618.1422424,E,1,08,1.42,54.2020,M,-6.5809,M,,*7C 
$GPGGA,084714.00,3959.0369251,N,11618.1543938,E,1,08,1.42,53.9913,M,-6.5800,M,,*7D 
$GPGGA,084715.00,3959.0372902,N,11618.1663645,E,1,08,1.42,53.8279,M,-6.5792,M,,*7D 
$GPGGA,084716.00,3959.0376713,N,11618.1781579,E,1,08,1.42,53.6959,M,-6.5783,M,,*72 
$GPGGA,084717.00,3959.0380511,N,11618.1897892,E,1,08,1.42,53.6077,M,-6.5775,M,,*76 
$GPGGA,084718.00,3959.0384254,N,11618.2013712,E,1,08,1.42,53.5443,M,-6.5766,M,,*79 
$GPGGA,084719.00,3959.0387782,N,11618.2130293,E,1,08,1.42,53.5199,M,-6.5758,M,,*76 
$GPGGA,084720.00,3959.0390969,N,11618.2248993,E,1,08,1.42,53.4906,M,-6.5749,M,,*79 
$GPGGA,084721.00,3959.0394337,N,11618.2369537,E,1,08,1.42,53.5071,M,-6.5741,M,,*7D 
$GPGGA,084722.00,3959.0397562,N,11618.2491314,E,1,08,1.42,53.5734,M,-6.5732,M,,*7E 
$GPGGA,084723.00,3959.0396376,N,11618.2617183,E,1,09,0.98,52.1516,M,-6.5723,M,,*7D 
$GPGGA,084724.00,3959.0397899,N,11618.2743096,E,1,09,0.98,51.3442,M,-6.5714,M,,*71 
$GPGGA,084725.00,3959.0400302,N,11618.2870168,E,1,09,0.98,50.8436,M,-6.5705,M,,*76 
$GPGGA,084726.00,3959.0402992,N,11618.2998806,E,1,09,0.98,50.4741,M,-6.5695,M,,*75 
$GPGGA,084727.00,3959.0405708,N,11618.3129090,E,1,09,0.98,50.2139,M,-6.5686,M,,*77 
$GPGGA,084728.00,3959.0408114,N,11618.3261233,E,1,09,0.98,49.9614,M,-6.5676,M,,*7E 
$GPGGA,084729.00,3959.0410235,N,11618.3395219,E,1,09,0.98,49.7937,M,-6.5667,M,,*74 
$GPGGA,084730.00,3959.0411877,N,11618.3531390,E,1,09,0.98,49.5917,M,-6.5657,M,,*7A 
$GPGGA,084731.00,3959.0412802,N,11618.3670034,E,1,09,0.98,49.3584,M,-6.5647,M,,*70 
$GPGGA,084732.00,3959.0413240,N,11618.3811451,E,1,09,0.98,49.0757,M,-6.5637,M,,*78 
$GPGGA,084733.00,3959.0414307,N,11618.3955596,E,1,09,0.98,48.7627,M,-6.5626,M,,*77 
$GPGGA,084734.00,3959.0416038,N,11618.4102320,E,1,09,0.98,48.3802,M,-6.5616,M,,*75 
$GPGGA,084735.00,3959.0417986,N,11618.4251027,E,1,09,0.98,47.9647,M,-6.5605,M,,*70 
$GPGGA,084736.00,3959.0420750,N,11618.4401207,E,1,09,0.98,47.5321,M,-6.5594,M,,*73 
$GPGGA,084737.00,3959.0424084,N,11618.4552344,E,1,09,0.98,47.0401,M,-6.5583,M,,*7F 
$GPGGA,084738.00,3959.0427219,N,11618.4704536,E,1,09,0.98,46.5248,M,-6.5572,M,,*76 
$GPGGA,084739.00,3959.0430368,N,11618.4857966,E,1,09,0.98,45.9513,M,-6.5561,M,,*72 
$GPGGA,084740.00,3959.0434245,N,11618.5012074,E,1,09,0.98,45.3080,M,-6.5550,M,,*73 
$GPGGA,084741.00,3959.0437850,N,11618.5166819,E,1,09,0.98,44.6452,M,-6.5539,M,,*7E 
$GPGGA,084742.00,3959.0440525,N,11618.5324018,E,1,09,0.98,43.8031,M,-6.5527,M,,*78 
$GPGGA,084743.00,3959.0458102,N,11618.5473632,E,1,08,1.42,48.0887,M,-6.5517,M,,*78 
$GPGGA,084744.00,3959.0460736,N,11618.5634317,E,1,08,1.42,47.4289,M,-6.5505,M,,*7A 
$GPGGA,084745.00,3959.0463778,N,11618.5795128,E,1,08,1.42,46.9384,M,-6.5493,M,,*78 
$GPGGA,084746.00,3959.0469582,N,11618.5968628,E,1,05,3.43,42.9406,M,-6.5481,M,,*79 
$GPGGA,084752.00,3959.0484066,N,11618.6932020,E,1,05,4.15,44.8693,M,-6.5411,M,,*76 
$GPGGA,084753.00,3959.0491760,N,11618.7091370,E,1,07,1.61,45.0624,M,-6.5400,M,,*74 
$GPGGA,084754.00,3959.0506779,N,11618.7234450,E,1,06,2.04,50.6343,M,-6.5390,M,,*75 
$GPGGA,084800.00,3959.0517563,N,11618.8142098,E,1,06,3.03,43.1910,M,-6.5324,M,,*7F 
$GPGGA,084801.00,3959.0521649,N,11618.8325246,E,1,05,10.63,35.4391,M,-6.5311,M,,*44 
$GPGGA,084807.00,3959.0553881,N,11618.9122993,E,1,06,2.03,47.5737,M,-6.5253,M,,*77 
$GPGGA,084808.00,3959.0560359,N,11618.9260753,E,1,08,1.42,48.6379,M,-6.5243,M,,*7A 
$GPGGA,084809.00,3959.0565214,N,11618.9399620,E,1,08,1.42,48.8850,M,-6.5233,M,,*7D 
$GPGGA,084810.00,3959.0570343,N,11618.9538542,E,1,08,1.42,49.0389,M,-6.5223,M,,*7F 
$GPGGA,084811.00,3959.0575346,N,11618.9678207,E,1,08,1.42,49.1884,M,-6.5213,M,,*7B 
$GPGGA,084812.00,3959.0580069,N,11618.9817574,E,1,08,1.42,49.3470,M,-6.5203,M,,*7C 
$GPGGA,084813.00,3959.0584271,N,11618.9954628,E,1,08,1.42,49.3671,M,-6.5193,M,,*77 
$GPGGA,084814.00,3959.0588065,N,11619.0089183,E,1,08,1.42,49.3221,M,-6.5184,M,,*7B 
$GPGGA,084815.00,3959.0582878,N,11619.0228111,E,1,09,0.98,46.1537,M,-6.5174,M,,*73 
$GPGGA,084816.00,3959.0583292,N,11619.0364124,E,1,09,0.98,44.9182,M,-6.5164,M,,*71 
$GPGGA,084817.00,3959.0586276,N,11619.0499627,E,1,09,0.98,44.4456,M,-6.5154,M,,*7C 
$GPGGA,084818.00,3959.0590005,N,11619.0635147,E,1,09,0.98,44.3231,M,-6.5144,M,,*76 
$GPGGA,084819.00,3959.0593935,N,11619.0768483,E,1,09,0.98,44.1756,M,-6.5135,M,,*7A 
$GPGGA,084820.00,3959.0597296,N,11619.0899113,E,1,09,0.98,43.9377,M,-6.5125,M,,*72 
$GPGGA,084821.00,3959.0600829,N,11619.1024423,E,1,09,0.98,43.7196,M,-6.5116,M,,*7A 
$GPGGA,084822.00,3959.0604337,N,11619.1143392,E,1,09,0.98,43.5836,M,-6.5108,M,,*7A 
$GPGGA,084823.00,3959.0607569,N,11619.1259917,E,1,09,0.98,43.4481,M,-6.5099,M,,*72 
$GPGGA,084824.00,3959.0609996,N,11619.1374815,E,1,09,0.98,43.1015,M,-6.5091,M,,*7E 
$GPGGA,084825.00,3959.0628619,N,11619.1478270,E,1,08,1.42,48.2313,M,-6.5083,M,,*7F 
$GPGGA,084826.00,3959.0631496,N,11619.1591201,E,1,08,1.42,48.0402,M,-6.5075,M,,*7D 
$GPGGA,084827.00,3959.0634765,N,11619.1703937,E,1,08,1.42,47.8666,M,-6.5067,M,,*75 
$GPGGA,084828.00,3959.0638491,N,11619.1816755,E,1,08,1.42,47.7389,M,-6.5059,M,,*79 
$GPGGA,084829.00,3959.0642156,N,11619.1929321,E,1,08,1.42,47.4686,M,-6.5051,M,,*70 
$GPGGA,084830.00,3959.0645552,N,11619.2041431,E,1,08,1.42,47.0908,M,-6.5043,M,,*73 
$GPGGA,084831.00,3959.0649504,N,11619.2152393,E,1,08,1.42,47.1247,M,-6.5035,M,,*71 
$GPGGA,084832.00,3959.0652900,N,11619.2263770,E,1,08,1.42,47.0251,M,-6.5027,M,,*7D 
$GPGGA,084833.00,3959.0656091,N,11619.2375911,E,1,08,1.42,46.9628,M,-6.5019,M,,*79 
$GPGGA,084834.00,3959.0659521,N,11619.2485151,E,1,08,1.42,47.5047,M,-6.5011,M,,*71 
$GPGGA,084840.00,3959.0667998,N,11619.3154060,E,1,05,2.15,46.4993,M,-6.4963,M,,*7B 
$GPGGA,084841.00,3959.0677177,N,11619.3260034,E,1,07,1.69,47.3258,M,-6.4955,M,,*72 
$GPGGA,084842.00,3959.0681769,N,11619.3369979,E,1,08,1.42,46.8387,M,-6.4947,M,,*75 
$GPGGA,084843.00,3959.0686858,N,11619.3476601,E,1,08,1.42,46.9923,M,-6.4939,M,,*7B 
$GPGGA,084844.00,3959.0690925,N,11619.3581847,E,1,08,1.42,46.9905,M,-6.4932,M,,*7A 
$GPGGA,084845.00,3959.0694764,N,11619.3685540,E,1,08,1.42,47.0986,M,-6.4924,M,,*7D 
$GPGGA,084846.00,3959.0698586,N,11619.3787292,E,1,07,1.69,47.6275,M,-6.4917,M,,*70 
$GPGGA,084847.00,3959.0699649,N,11619.3916519,E,1,05,5.05,44.1125,M,-6.4908,M,,*72 
$GPGGA,084854.00,3959.0731854,N,11619.4595983,E,1,05,3.28,48.0300,M,-6.4859,M,,*7A 
$GPGGA,084855.00,3959.0735449,N,11619.4706128,E,1,07,1.59,48.0406,M,-6.4851,M,,*71 
$GPGGA,084856.00,3959.0740632,N,11619.4811663,E,1,07,1.59,48.0483,M,-6.4843,M,,*71 
$GPGGA,084857.00,3959.0745627,N,11619.4917021,E,1,07,1.59,48.0219,M,-6.4836,M,,*71 
$GPGGA,084858.00,3959.0750721,N,11619.5022570,E,1,07,1.59,47.9505,M,-6.4828,M,,*71 
$GPGGA,084859.00,3959.0755470,N,11619.5128363,E,1,07,1.59,47.9455,M,-6.4820,M,,*71 
$GPGGA,084900.00,3959.0759628,N,11619.5234836,E,1,08,1.42,47.9042,M,-6.4813,M,,*7D 
$GPGGA,084901.00,3959.0763672,N,11619.5342133,E,1,08,1.42,47.8252,M,-6.4805,M,,*73 
$GPGGA,084902.00,3959.0767566,N,11619.5451002,E,1,08,1.42,47.8174,M,-6.4797,M,,*77 
$GPGGA,084903.00,3959.0770667,N,11619.5562764,E,1,08,1.42,47.7304,M,-6.4789,M,,*71 
$GPGGA,084904.00,3959.0772502,N,11619.5677823,E,1,08,1.42,47.5177,M,-6.4781,M,,*73 
$GPGGA,084905.00,3959.0773550,N,11619.5796413,E,1,08,1.42,47.2656,M,-6.4772,M,,*7A 
$GPGGA,084906.00,3959.0775343,N,11619.5917183,E,1,08,1.42,47.3851,M,-6.4763,M,,*78 
$GPGGA,084907.00,3959.0778538,N,11619.6039427,E,1,07,1.68,48.0684,M,-6.4755,M,,*7B 
$GPGGA,084914.00,3959.0816383,N,11619.6971881,E,1,05,2.14,49.0399,M,-6.4687,M,,*71 
$GPGGA,084915.00,3959.0824050,N,11619.7107631,E,1,06,1.97,48.6313,M,-6.4678,M,,*7F 
$GPGGA,084916.00,3959.0830324,N,11619.7244511,E,1,06,1.97,48.5474,M,-6.4668,M,,*78 
$GPGGA,084917.00,3959.0836341,N,11619.7381669,E,1,07,1.68,48.2577,M,-6.4658,M,,*7F 
$GPGGA,084918.00,3959.0842220,N,11619.7519787,E,1,08,1.42,47.7865,M,-6.4648,M,,*71 
$GPGGA,084919.00,3959.0847929,N,11619.7656113,E,1,08,1.42,47.6241,M,-6.4638,M,,*7E 
$GPGGA,084920.00,3959.0853526,N,11619.7791722,E,1,08,1.42,47.5427,M,-6.4628,M,,*78 
$GPGGA,084921.00,3959.0858795,N,11619.7926859,E,1,08,1.42,47.4959,M,-6.4619,M,,*7E 
$GPGGA,084922.00,3959.0863868,N,11619.8060909,E,1,08,1.42,47.3410,M,-6.4609,M,,*7E 
$GPGGA,084923.00,3959.0869090,N,11619.8193586,E,1,08,1.42,47.1893,M,-6.4600,M,,*70 
$GPGGA,084924.00,3959.0874355,N,11619.8324738,E,1,08,1.42,47.1446,M,-6.4590,M,,*76 
$GPGGA,084925.00,3959.0878663,N,11619.8455336,E,1,09,1.39,46.7628,M,-6.4581,M,,*70 
$GPGGA,084926.00,3959.0881597,N,11619.8583193,E,1,09,1.39,46.6471,M,-6.4571,M,,*7A 
$GPGGA,084927.00,3959.0883036,N,11619.8709153,E,1,09,1.39,46.5203,M,-6.4562,M,,*79 
$GPGGA,084928.00,3959.0878556,N,11619.8838177,E,1,10,0.89,44.6249,M,-6.4553,M,,*75 
$GPGGA,084929.00,3959.0877809,N,11619.8964500,E,1,09,0.98,44.0336,M,-6.4544,M,,*71 
$GPGGA,084930.00,3959.0889195,N,11619.9084698,E,1,07,1.68,47.1250,M,-6.4535,M,,*75 
$GPGGA,084931.00,3959.0892544,N,11619.9221122,E,1,06,3.41,44.7983,M,-6.4526,M,,*77 
$GPGGA,084932.00,3959.0899386,N,11619.9342965,E,1,06,1.78,46.2323,M,-6.4517,M,,*75 
$GPGGA,084937.00,3959.0898875,N,11619.9993550,E,1,04,2.23,44.7233,M,-6.4470,M,,*72 
$GPGGA,084938.00,3959.0905962,N,11620.0116500,E,1,06,1.95,45.8288,M,-6.4461,M,,*7E 
$GPGGA,084939.00,3959.0895639,N,11620.0251227,E,1,07,1.22,41.4615,M,-6.4451,M,,*72 
$GPGGA,084940.00,3959.0894495,N,11620.0378180,E,1,08,1.19,41.3785,M,-6.4442,M,,*77 
$GPGGA,084941.00,3959.0894683,N,11620.0503929,E,1,08,1.19,41.3827,M,-6.4433,M,,*73 
$GPGGA,084942.00,3959.0905333,N,11620.0619627,E,1,07,1.68,45.9296,M,-6.4425,M,,*7E 
$GPGGA,084948.00,3959.0940646,N,11620.1392986,E,1,07,1.58,47.5126,M,-6.4369,M,,*7B 
$GPGGA,084949.00,3959.0947343,N,11620.1522568,E,1,07,1.58,48.0737,M,-6.4360,M,,*79 
$GPGGA,084950.00,3959.0952737,N,11620.1651555,E,1,07,1.58,48.4636,M,-6.4351,M,,*7D 
$GPGGA,084951.00,3959.0956800,N,11620.1776675,E,1,07,1.58,49.0094,M,-6.4342,M,,*7F 
$GPGGA,084952.00,3959.0959373,N,11620.1897748,E,1,08,1.42,49.5633,M,-6.4333,M,,*7F 
$GPGGA,084953.00,3959.0961204,N,11620.2013854,E,1,08,1.42,50.0438,M,-6.4324,M,,*73 
$GPGGA,084954.00,3959.0963322,N,11620.2124751,E,1,08,1.42,50.5835,M,-6.4317,M,,*78 
$GPGGA,084955.00,3959.0965621,N,11620.2232122,E,1,08,1.42,51.0702,M,-6.4309,M,,*7F 
$GPGGA,084956.00,3959.0967995,N,11620.2332556,E,1,08,1.42,51.4217,M,-6.4302,M,,*76 
$GPGGA,084957.00,3959.0969614,N,11620.2422952,E,1,08,1.42,51.7173,M,-6.4295,M,,*7C 
$GPGGA,084958.00,3959.0969940,N,11620.2500972,E,1,08,1.42,51.9108,M,-6.4289,M,,*71 
$GPGGA,084959.00,3959.0969202,N,11620.2562980,E,1,08,1.42,52.1686,M,-6.4285,M,,*72 
$GPGGA,085000.00,3959.0966218,N,11620.2607160,E,1,08,1.42,52.3002,M,-6.4282,M,,*7B 
$GPGGA,085001.00,3959.0957654,N,11620.2638836,E,1,09,0.98,51.4339,M,-6.4280,M,,*78 
$GPGGA,085002.00,3959.0949156,N,11620.2657121,E,1,09,0.98,50.7116,M,-6.4278,M,,*7D 
$GPGGA,085003.00,3959.0950397,N,11620.2661560,E,1,09,0.98,52.6044,M,-6.4278,M,,*7A 
$GPGGA,085004.00,3959.0935084,N,11620.2667416,E,1,08,1.07,50.4734,M,-6.4277,M,,*70 
$GPGGA,085005.00,3959.0923218,N,11620.2675118,E,1,09,0.95,50.3060,M,-6.4277,M,,*73 
$GPGGA,085006.00,3959.0912490,N,11620.2680456,E,1,08,1.56,51.8764,M,-6.4277,M,,*77 
$GPGGA,085007.00,3959.0893460,N,11620.2682411,E,1,08,1.56,51.7253,M,-6.4276,M,,*7F 
$GPGGA,085008.00,3959.0875531,N,11620.2682085,E,1,08,1.56,51.6285,M,-6.4276,M,,*7E 
$GPGGA,085009.00,3959.0861349,N,11620.2682908,E,1,07,1.58,51.1445,M,-6.4276,M,,*73 
$GPGGA,085010.00,3959.0845296,N,11620.2685099,E,1,07,1.03,50.7373,M,-6.4276,M,,*73 
$GPGGA,085012.00,3959.0793964,N,11620.2689451,E,1,04,4.53,49.0220,M,-6.4276,M,,*74 
$GPGGA,085013.00,3959.0766613,N,11620.2693430,E,1,04,4.53,48.3370,M,-6.4276,M,,*7A 
$GPGGA,085018.00,3959.0475647,N,11620.2761344,E,1,05,2.06,50.5993,M,-6.4271,M,,*71 
$GPGGA,085019.00,3959.0444994,N,11620.2734240,E,1,05,8.55,50.6330,M,-6.4273,M,,*78 
$GPGGA,085020.00,3959.0389619,N,11620.2736182,E,1,05,8.55,50.9888,M,-6.4272,M,,*77 
$GPGGA,085021.00,3959.0361629,N,11620.2705772,E,1,04,13.53,48.6468,M,-6.4275,M,,*44 
$GPGGA,085022.00,3959.0302257,N,11620.2729587,E,1,05,3.27,50.7238,M,-6.4273,M,,*77 
$GPGGA,085023.00,3959.0273438,N,11620.2725635,E,1,05,3.27,50.5384,M,-6.4273,M,,*7C 
$GPGGA,085024.00,3959.0250055,N,11620.2726391,E,1,05,8.57,50.7560,M,-6.4273,M,,*7F 
$GPGGA,085025.00,3959.0221151,N,11620.2738144,E,1,05,8.58,51.3891,M,-6.4272,M,,*70 
$GPGGA,085026.00,3959.0198859,N,11620.2740831,E,1,05,8.59,51.3438,M,-6.4272,M,,*79 
$GPGGA,085027.00,3959.0175543,N,11620.2742897,E,1,06,1.83,51.2733,M,-6.4272,M,,*77 
$GPGGA,085028.00,3959.0152642,N,11620.2744372,E,1,06,1.83,51.5593,M,-6.4272,M,,*76 
$GPGGA,085029.00,3959.0127625,N,11620.2745417,E,1,04,3.78,50.8553,M,-6.4272,M,,*75 
$GPGGA,085054.00,3958.9272191,N,11620.2796300,E,1,04,8.75,50.8048,M,-6.4268,M,,*71 
$GPGGA,085102.00,3958.9049693,N,11620.2814543,E,1,05,8.76,49.9492,M,-6.4267,M,,*7F 
$GPGGA,085103.00,3958.9023022,N,11620.2813338,E,1,05,8.76,50.2083,M,-6.4267,M,,*74 
$GPGGA,085104.00,3958.8995333,N,11620.2811392,E,1,04,8.88,51.1684,M,-6.4267,M,,*74 
$GPGGA,085105.00,3958.8961148,N,11620.2818383,E,1,05,2.07,50.8656,M,-6.4267,M,,*72 
$GPGGA,085106.00,3958.8936059,N,11620.2821680,E,1,06,1.89,50.9773,M,-6.4266,M,,*7E 
$GPGGA,085107.00,3958.8916064,N,11620.2823217,E,1,06,1.89,50.7013,M,-6.4266,M,,*74 
$GPGGA,085108.00,3958.8895943,N,11620.2823387,E,1,06,1.88,50.7767,M,-6.4266,M,,*70 
$GPGGA,085109.00,3958.8871486,N,11620.2825102,E,1,06,1.88,50.8411,M,-6.4266,M,,*7B 
$GPGGA,085110.00,3958.8841040,N,11620.2828254,E,1,06,1.88,50.8712,M,-6.4266,M,,*73 
$GPGGA,085111.00,3958.8805817,N,11620.2831677,E,1,06,1.88,50.8792,M,-6.4266,M,,*7D 
$GPGGA,085112.00,3958.8769642,N,11620.2834111,E,1,06,1.88,50.8797,M,-6.4265,M,,*71 
$GPGGA,085113.00,3958.8733915,N,11620.2835422,E,1,06,1.88,50.8160,M,-6.4265,M,,*78 
$GPGGA,085114.00,3958.8698331,N,11620.2835706,E,1,06,1.88,50.7602,M,-6.4265,M,,*7A 
$GPGGA,085115.00,3958.8663548,N,11620.2836112,E,1,06,1.88,50.6699,M,-6.4265,M,,*74 
$GPGGA,085116.00,3958.8630572,N,11620.2837633,E,1,06,1.88,50.6521,M,-6.4265,M,,*7D 
$GPGGA,085117.00,3958.8601366,N,11620.2839904,E,1,06,1.88,50.6677,M,-6.4265,M,,*78 
$GPGGA,085118.00,3958.8577632,N,11620.2842777,E,1,06,1.88,50.7119,M,-6.4265,M,,*79 
$GPGGA,085119.00,3958.8552160,N,11620.2848311,E,1,07,1.22,49.6378,M,-6.4264,M,,*7D 
$GPGGA,085120.00,3958.8524658,N,11620.2852798,E,1,07,1.22,49.0880,M,-6.4264,M,,*7E 
$GPGGA,085121.00,3958.8492844,N,11620.2856722,E,1,08,1.03,48.7985,M,-6.4264,M,,*7B 
$GPGGA,085122.00,3958.8456520,N,11620.2859444,E,1,08,1.03,48.6185,M,-6.4264,M,,*7A 
$GPGGA,085123.00,3958.8419070,N,11620.2857724,E,1,07,1.56,50.2727,M,-6.4264,M,,*77 
$GPGGA,085124.00,3958.8373515,N,11620.2859759,E,1,07,1.56,50.2088,M,-6.4264,M,,*7B 
$GPGGA,085125.00,3958.8325015,N,11620.2861399,E,1,07,1.56,50.3419,M,-6.4263,M,,*75 
$GPGGA,085126.00,3958.8274460,N,11620.2863786,E,1,06,1.87,50.6392,M,-6.4263,M,,*71 
$GPGGA,085127.00,3958.8223880,N,11620.2868158,E,1,06,1.87,50.6210,M,-6.4263,M,,*75 
$GPGGA,085128.00,3958.8175185,N,11620.2873168,E,1,06,1.87,50.6186,M,-6.4263,M,,*73 
$GPGGA,085129.00,3958.8128441,N,11620.2878507,E,1,06,1.87,50.6528,M,-6.4262,M,,*70 
$GPGGA,085130.00,3958.8086011,N,11620.2883724,E,1,06,1.87,50.6630,M,-6.4262,M,,*71 
$GPGGA,085131.00,3958.8054313,N,11620.2886819,E,1,06,1.87,50.6574,M,-6.4262,M,,*79 
$GPGGA,085132.00,3958.8031003,N,11620.2887788,E,1,06,1.87,50.6617,M,-6.4261,M,,*78 
$GPGGA,085133.00,3958.8009656,N,11620.2887016,E,1,06,1.87,50.6548,M,-6.4262,M,,*7E 
$GPGGA,085134.00,3958.7989516,N,11620.2883088,E,1,06,1.87,50.6811,M,-6.4262,M,,*72 
$GPGGA,085135.00,3958.7970220,N,11620.2879916,E,1,06,1.87,50.6917,M,-6.4262,M,,*7B 
$GPGGA,085136.00,3958.7951297,N,11620.2883425,E,1,06,1.87,50.7457,M,-6.4262,M,,*77 
$GPGGA,085137.00,3958.7934831,N,11620.2895506,E,1,06,1.86,50.8123,M,-6.4261,M,,*7F 
$GPGGA,085138.00,3958.7922763,N,11620.2916420,E,1,06,1.86,50.8706,M,-6.4259,M,,*7A 
$GPGGA,085139.00,3958.7918042,N,11620.2941410,E,1,06,1.86,50.8846,M,-6.4258,M,,*7D 
$GPGGA,085140.00,3958.7917358,N,11620.2968621,E,1,06,1.86,50.8817,M,-6.4256,M,,*75 
$GPGGA,085141.00,3958.7918662,N,11620.3001226,E,1,06,1.86,50.9370,M,-6.4253,M,,*7D 
$GPGGA,085142.00,3958.7920123,N,11620.3040345,E,1,06,1.86,50.8849,M,-6.4250,M,,*75 
$GPGGA,085143.00,3958.7921493,N,11620.3084557,E,1,06,1.86,50.8842,M,-6.4247,M,,*7B 
$GPGGA,085144.00,3958.7923030,N,11620.3129090,E,1,06,1.86,50.8845,M,-6.4244,M,,*7F 
$GPGGA,085145.00,3958.7924380,N,11620.3176018,E,1,06,1.86,50.9128,M,-6.4241,M,,*7D 
$GPGGA,085146.00,3958.7925767,N,11620.3228057,E,1,06,1.86,50.9650,M,-6.4237,M,,*78 
$GPGGA,085147.00,3958.7926149,N,11620.3283278,E,1,06,1.86,50.9259,M,-6.4233,M,,*77 
$GPGGA,085148.00,3958.7924345,N,11620.3339834,E,1,07,1.22,50.0248,M,-6.4229,M,,*7B 
$GPGGA,085149.00,3958.7921412,N,11620.3391904,E,1,07,1.22,49.0403,M,-6.4225,M,,*77 
$GPGGA,085150.00,3958.7919657,N,11620.3436006,E,1,07,1.22,48.3660,M,-6.4222,M,,*74 
$GPGGA,085151.00,3958.7919771,N,11620.3478697,E,1,07,1.22,47.7700,M,-6.4219,M,,*70 
$GPGGA,085152.00,3958.7927389,N,11620.3518835,E,1,07,1.22,50.1815,M,-6.4216,M,,*78 
$GPGGA,085153.00,3958.7925364,N,11620.3576447,E,1,07,1.22,46.9856,M,-6.4212,M,,*75 
$GPGGA,085154.00,3958.7928721,N,11620.3632749,E,1,07,1.22,46.7950,M,-6.4208,M,,*76 
$GPGGA,085155.00,3958.7932192,N,11620.3689940,E,1,07,1.22,46.6191,M,-6.4204,M,,*7D 
$GPGGA,085156.00,3958.7935155,N,11620.3746635,E,1,07,1.22,46.4844,M,-6.4200,M,,*7A 
$GPGGA,085157.00,3958.7937128,N,11620.3803442,E,1,08,1.03,46.4103,M,-6.4196,M,,*75 
$GPGGA,085158.00,3958.7938373,N,11620.3861713,E,1,08,1.03,46.4025,M,-6.4191,M,,*78 
$GPGGA,085159.00,3958.7938402,N,11620.3920443,E,1,08,1.03,46.3939,M,-6.4187,M,,*7E 
$GPGGA,085200.00,3958.7936646,N,11620.3976270,E,1,08,1.03,46.2795,M,-6.4183,M,,*75 
$GPGGA,085201.00,3958.7945128,N,11620.4015754,E,1,06,1.85,50.8429,M,-6.4180,M,,*7D 
$GPGGA,085202.00,3958.7944969,N,11620.4059881,E,1,06,1.85,50.8219,M,-6.4177,M,,*70 
$GPGGA,085203.00,3958.7947636,N,11620.4102873,E,1,06,1.85,50.8318,M,-6.4174,M,,*76 
$GPGGA,085204.00,3958.7952017,N,11620.4149374,E,1,06,1.85,50.8556,M,-6.4171,M,,*7A 
$GPGGA,085205.00,3958.7952955,N,11620.4204968,E,1,07,1.22,49.6681,M,-6.4167,M,,*7D 
$GPGGA,085206.00,3958.7955834,N,11620.4262920,E,1,07,1.22,50.5249,M,-6.4163,M,,*7C 
$GPGGA,085207.00,3958.7956845,N,11620.4330646,E,1,07,1.22,50.3142,M,-6.4158,M,,*77 
$GPGGA,085208.00,3958.7960777,N,11620.4399763,E,1,06,1.84,50.7690,M,-6.4153,M,,*7C 
$GPGGA,085209.00,3958.7964628,N,11620.4470309,E,1,06,1.84,50.7660,M,-6.4148,M,,*7F 
$GPGGA,085210.00,3958.7968257,N,11620.4544013,E,1,06,1.84,50.7414,M,-6.4142,M,,*72 
$GPGGA,085211.00,3958.7971463,N,11620.4619065,E,1,07,1.66,50.7006,M,-6.4137,M,,*78 
$GPGGA,085212.00,3958.7968438,N,11620.4697903,E,1,07,1.30,49.7916,M,-6.4131,M,,*77 
$GPGGA,085213.00,3958.7969051,N,11620.4770861,E,1,07,1.30,49.0094,M,-6.4126,M,,*73 
$GPGGA,085214.00,3958.7969178,N,11620.4837528,E,1,06,1.35,48.4326,M,-6.4121,M,,*7E 
$GPGGA,085215.00,3958.7969348,N,11620.4895456,E,1,06,1.36,48.0398,M,-6.4117,M,,*79 
$GPGGA,085216.00,3958.7970526,N,11620.4944549,E,1,06,1.36,47.7742,M,-6.4114,M,,*76 
$GPGGA,085217.00,3958.7971153,N,11620.4984538,E,1,06,1.36,47.5285,M,-6.4111,M,,*73 
$GPGGA,085218.00,3958.7971385,N,11620.5020022,E,1,06,1.36,47.4047,M,-6.4108,M,,*78 
$GPGGA,085219.00,3958.7972169,N,11620.5053320,E,1,06,1.36,47.2873,M,-6.4106,M,,*78 
$GPGGA,085220.00,3958.7973424,N,11620.5091929,E,1,06,1.36,47.2464,M,-6.4103,M,,*7D 
$GPGGA,085221.00,3958.7975046,N,11620.5136348,E,1,06,1.36,47.1530,M,-6.4100,M,,*7B 
$GPGGA,085222.00,3958.7976348,N,11620.5179630,E,1,07,1.22,46.8971,M,-6.4097,M,,*7D 
$GPGGA,085223.00,3958.7986795,N,11620.5210332,E,1,06,1.83,50.9476,M,-6.4094,M,,*79 
$GPGGA,085224.00,3958.7980339,N,11620.5263305,E,1,07,1.22,46.6620,M,-6.4091,M,,*7C 
$GPGGA,085225.00,3958.7982677,N,11620.5316448,E,1,07,1.22,46.5303,M,-6.4087,M,,*7D 
$GPGGA,085226.00,3958.7990276,N,11620.5372578,E,1,07,1.22,49.1635,M,-6.4083,M,,*77 
$GPGGA,085227.00,3958.7995227,N,11620.5438381,E,1,05,2.03,51.0685,M,-6.4078,M,,*7B 
$GPGGA,085228.00,3958.8003272,N,11620.5506567,E,1,04,9.04,52.1142,M,-6.4073,M,,*77 
$GPGGA,085229.00,3958.8006420,N,11620.5582928,E,1,04,9.04,52.1087,M,-6.4068,M,,*7B 
$GPGGA,085230.00,3958.8001037,N,11620.5663927,E,1,05,2.11,51.4628,M,-6.4062,M,,*74 
$GPGGA,085231.00,3958.7991251,N,11620.5747665,E,1,05,2.11,50.2181,M,-6.4056,M,,*72 
$GPGGA,085232.00,3958.7990447,N,11620.5823317,E,1,05,2.11,49.9041,M,-6.4050,M,,*74 
$GPGGA,085233.00,3958.7990913,N,11620.5896029,E,1,05,2.11,49.7711,M,-6.4045,M,,*71 
$GPGGA,085234.00,3958.7992907,N,11620.5964159,E,1,05,2.11,49.6765,M,-6.4040,M,,*7C 
$GPGGA,085235.00,3958.7995785,N,11620.6026326,E,1,05,2.11,49.5839,M,-6.4036,M,,*7C 
$GPGGA,085236.00,3958.8000042,N,11620.6083136,E,1,05,2.11,49.5770,M,-6.4032,M,,*73 
$GPGGA,085237.00,3958.8007996,N,11620.6131176,E,1,05,2.11,49.4527,M,-6.4028,M,,*73 
$GPGGA,085238.00,3958.8018182,N,11620.6169912,E,1,05,2.11,49.4494,M,-6.4025,M,,*7C 
$GPGGA,085239.00,3958.8040073,N,11620.6193720,E,1,06,1.46,50.2161,M,-6.4024,M,,*77 
$GPGGA,085240.00,3958.8050448,N,11620.6219588,E,1,07,1.13,48.9822,M,-6.4022,M,,*7E 
$GPGGA,085241.00,3958.8072309,N,11620.6226665,E,1,08,1.03,48.2028,M,-6.4021,M,,*75 
$GPGGA,085242.00,3958.8098367,N,11620.6219492,E,1,08,1.03,49.9590,M,-6.4022,M,,*73 
$GPGGA,085243.00,3958.8108376,N,11620.6217283,E,1,08,1.03,49.7619,M,-6.4022,M,,*7E 
$GPGGA,085244.00,3958.8109502,N,11620.6216912,E,1,08,1.03,49.6275,M,-6.4022,M,,*70 
$GPGGA,085245.00,3958.8109595,N,11620.6216963,E,1,08,1.03,49.5260,M,-6.4022,M,,*7E 
$GPGGA,085246.00,3958.8102160,N,11620.6222929,E,1,08,1.03,47.0188,M,-6.4022,M,,*7F 
$GPGGA,085247.00,3958.8102314,N,11620.6222760,E,1,08,1.03,46.9671,M,-6.4022,M,,*75